<?xml version="1.0" encoding="UTF-8" standalone="no" ?>
<gpx xmlns="http://www.topografix.com/GPX/1/1" xmlns:xsi="http://www.w3.org/2001/XMLSchema-instance" xsi:schemaLocation="http://www.topografix.com/GPX/1/1 http://www.topografix.com/GPX/1/1/gpx.xsd" version="1.1" creator="VisuGPX - https://www.visugpx.com">
  <metadata>
    <name>949i3809 on GPSies.com</name>
  </metadata>
  <trk>
    <name><![CDATA[949i3809 on GPSies.com]]></name>
    <trkseg>
      <trkpt lat="47.2856" lon="-1.48231">
        <ele>32</ele>
        <time>2019-04-09T18:38:09Z</time>
      </trkpt>
      <trkpt lat="47.2856" lon="-1.48229">
        <ele>32</ele>
        <time>2019-04-09T18:38:10Z</time>
      </trkpt>
      <trkpt lat="47.28567" lon="-1.48198">
        <ele>32</ele>
        <time>2019-04-09T18:38:19Z</time>
      </trkpt>
      <trkpt lat="47.2857" lon="-1.48178">
        <ele>32</ele>
        <time>2019-04-09T18:38:23Z</time>
      </trkpt>
      <trkpt lat="47.28567" lon="-1.48173">
        <ele>32</ele>
        <time>2019-04-09T18:38:24Z</time>
      </trkpt>
      <trkpt lat="47.28569" lon="-1.48144">
        <ele>32.4</ele>
        <time>2019-04-09T18:38:33Z</time>
      </trkpt>
      <trkpt lat="47.28574" lon="-1.48124">
        <ele>32.7</ele>
        <time>2019-04-09T18:38:42Z</time>
      </trkpt>
      <trkpt lat="47.28575" lon="-1.48122">
        <ele>32.7</ele>
        <time>2019-04-09T18:38:43Z</time>
      </trkpt>
      <trkpt lat="47.28589" lon="-1.48107">
        <ele>33.3</ele>
        <time>2019-04-09T18:38:51Z</time>
      </trkpt>
      <trkpt lat="47.28591" lon="-1.48105">
        <ele>33.4</ele>
        <time>2019-04-09T18:38:52Z</time>
      </trkpt>
      <trkpt lat="47.28606" lon="-1.48088">
        <ele>34</ele>
        <time>2019-04-09T18:39:00Z</time>
      </trkpt>
      <trkpt lat="47.28623" lon="-1.48084">
        <ele>34.4</ele>
        <time>2019-04-09T18:39:07Z</time>
      </trkpt>
      <trkpt lat="47.28638" lon="-1.48103">
        <ele>34.3</ele>
        <time>2019-04-09T18:39:15Z</time>
      </trkpt>
      <trkpt lat="47.28643" lon="-1.48111">
        <ele>34</ele>
        <time>2019-04-09T18:39:18Z</time>
      </trkpt>
      <trkpt lat="47.28648" lon="-1.48116">
        <ele>34</ele>
        <time>2019-04-09T18:39:20Z</time>
      </trkpt>
      <trkpt lat="47.28662" lon="-1.48132">
        <ele>34</ele>
        <time>2019-04-09T18:39:27Z</time>
      </trkpt>
      <trkpt lat="47.28668" lon="-1.48138">
        <ele>33.9</ele>
        <time>2019-04-09T18:39:30Z</time>
      </trkpt>
      <trkpt lat="47.2867" lon="-1.4814">
        <ele>33.7</ele>
        <time>2019-04-09T18:39:31Z</time>
      </trkpt>
      <trkpt lat="47.28674" lon="-1.48145">
        <ele>33.4</ele>
        <time>2019-04-09T18:39:33Z</time>
      </trkpt>
      <trkpt lat="47.28689" lon="-1.48164">
        <ele>32.9</ele>
        <time>2019-04-09T18:39:41Z</time>
      </trkpt>
      <trkpt lat="47.28695" lon="-1.48173">
        <ele>33</ele>
        <time>2019-04-09T18:39:45Z</time>
      </trkpt>
      <trkpt lat="47.28697" lon="-1.48175">
        <ele>32.9</ele>
        <time>2019-04-09T18:39:46Z</time>
      </trkpt>
      <trkpt lat="47.28711" lon="-1.48193">
        <ele>33</ele>
        <time>2019-04-09T18:39:53Z</time>
      </trkpt>
      <trkpt lat="47.28718" lon="-1.48203">
        <ele>33</ele>
        <time>2019-04-09T18:39:57Z</time>
      </trkpt>
      <trkpt lat="47.2872" lon="-1.48206">
        <ele>33</ele>
        <time>2019-04-09T18:39:58Z</time>
      </trkpt>
      <trkpt lat="47.2873" lon="-1.4822">
        <ele>33</ele>
        <time>2019-04-09T18:40:04Z</time>
      </trkpt>
      <trkpt lat="47.28744" lon="-1.48239">
        <ele>33</ele>
        <time>2019-04-09T18:40:12Z</time>
      </trkpt>
      <trkpt lat="47.28757" lon="-1.4826">
        <ele>32.7</ele>
        <time>2019-04-09T18:40:20Z</time>
      </trkpt>
      <trkpt lat="47.28769" lon="-1.4828">
        <ele>32.2</ele>
        <time>2019-04-09T18:40:27Z</time>
      </trkpt>
      <trkpt lat="47.28776" lon="-1.48292">
        <ele>31.6</ele>
        <time>2019-04-09T18:40:31Z</time>
      </trkpt>
      <trkpt lat="47.28777" lon="-1.48295">
        <ele>31.4</ele>
        <time>2019-04-09T18:40:32Z</time>
      </trkpt>
      <trkpt lat="47.28781" lon="-1.48308">
        <ele>31</ele>
        <time>2019-04-09T18:40:36Z</time>
      </trkpt>
      <trkpt lat="47.28783" lon="-1.48315">
        <ele>31</ele>
        <time>2019-04-09T18:40:38Z</time>
      </trkpt>
      <trkpt lat="47.28786" lon="-1.48332">
        <ele>31</ele>
        <time>2019-04-09T18:40:43Z</time>
      </trkpt>
      <trkpt lat="47.28787" lon="-1.48335">
        <ele>31</ele>
        <time>2019-04-09T18:40:44Z</time>
      </trkpt>
      <trkpt lat="47.28787" lon="-1.48354">
        <ele>31</ele>
        <time>2019-04-09T18:40:49Z</time>
      </trkpt>
      <trkpt lat="47.28786" lon="-1.48358">
        <ele>31</ele>
        <time>2019-04-09T18:40:50Z</time>
      </trkpt>
      <trkpt lat="47.28778" lon="-1.48376">
        <ele>31</ele>
        <time>2019-04-09T18:40:56Z</time>
      </trkpt>
      <trkpt lat="47.28776" lon="-1.48378">
        <ele>31</ele>
        <time>2019-04-09T18:40:57Z</time>
      </trkpt>
      <trkpt lat="47.28762" lon="-1.48395">
        <ele>31.4</ele>
        <time>2019-04-09T18:41:04Z</time>
      </trkpt>
      <trkpt lat="47.2876" lon="-1.48398">
        <ele>31.4</ele>
        <time>2019-04-09T18:41:05Z</time>
      </trkpt>
      <trkpt lat="47.28744" lon="-1.48407">
        <ele>31.3</ele>
        <time>2019-04-09T18:41:12Z</time>
      </trkpt>
      <trkpt lat="47.28734" lon="-1.4841">
        <ele>31.1</ele>
        <time>2019-04-09T18:41:16Z</time>
      </trkpt>
      <trkpt lat="47.28732" lon="-1.48411">
        <ele>31.1</ele>
        <time>2019-04-09T18:41:17Z</time>
      </trkpt>
      <trkpt lat="47.28713" lon="-1.48415">
        <ele>31</ele>
        <time>2019-04-09T18:41:24Z</time>
      </trkpt>
      <trkpt lat="47.28696" lon="-1.48421">
        <ele>31</ele>
        <time>2019-04-09T18:41:31Z</time>
      </trkpt>
      <trkpt lat="47.28678" lon="-1.48427">
        <ele>31</ele>
        <time>2019-04-09T18:41:38Z</time>
      </trkpt>
      <trkpt lat="47.28675" lon="-1.48429">
        <ele>31</ele>
        <time>2019-04-09T18:41:39Z</time>
      </trkpt>
      <trkpt lat="47.28673" lon="-1.4843">
        <ele>31</ele>
        <time>2019-04-09T18:41:40Z</time>
      </trkpt>
      <trkpt lat="47.28664" lon="-1.48435">
        <ele>30.9</ele>
        <time>2019-04-09T18:41:44Z</time>
      </trkpt>
      <trkpt lat="47.28645" lon="-1.48446">
        <ele>30.2</ele>
        <time>2019-04-09T18:41:52Z</time>
      </trkpt>
      <trkpt lat="47.28643" lon="-1.48447">
        <ele>30.1</ele>
        <time>2019-04-09T18:41:53Z</time>
      </trkpt>
      <trkpt lat="47.28625" lon="-1.48457">
        <ele>30</ele>
        <time>2019-04-09T18:42:00Z</time>
      </trkpt>
      <trkpt lat="47.2861" lon="-1.48467">
        <ele>30</ele>
        <time>2019-04-09T18:42:06Z</time>
      </trkpt>
      <trkpt lat="47.28608" lon="-1.48469">
        <ele>30</ele>
        <time>2019-04-09T18:42:07Z</time>
      </trkpt>
      <trkpt lat="47.28602" lon="-1.48472">
        <ele>30</ele>
        <time>2019-04-09T18:42:09Z</time>
      </trkpt>
      <trkpt lat="47.28595" lon="-1.48476">
        <ele>29.9</ele>
        <time>2019-04-09T18:42:12Z</time>
      </trkpt>
      <trkpt lat="47.28578" lon="-1.48489">
        <ele>29.2</ele>
        <time>2019-04-09T18:42:19Z</time>
      </trkpt>
      <trkpt lat="47.28575" lon="-1.48491">
        <ele>29</ele>
        <time>2019-04-09T18:42:20Z</time>
      </trkpt>
      <trkpt lat="47.28573" lon="-1.48493">
        <ele>28.9</ele>
        <time>2019-04-09T18:42:21Z</time>
      </trkpt>
      <trkpt lat="47.28569" lon="-1.48496">
        <ele>28.6</ele>
        <time>2019-04-09T18:42:23Z</time>
      </trkpt>
      <trkpt lat="47.28564" lon="-1.485">
        <ele>28.3</ele>
        <time>2019-04-09T18:42:25Z</time>
      </trkpt>
      <trkpt lat="47.28547" lon="-1.48513">
        <ele>28</ele>
        <time>2019-04-09T18:42:32Z</time>
      </trkpt>
      <trkpt lat="47.28541" lon="-1.48519">
        <ele>28</ele>
        <time>2019-04-09T18:42:35Z</time>
      </trkpt>
      <trkpt lat="47.28539" lon="-1.48521">
        <ele>28</ele>
        <time>2019-04-09T18:42:36Z</time>
      </trkpt>
      <trkpt lat="47.28528" lon="-1.48531">
        <ele>27.9</ele>
        <time>2019-04-09T18:42:41Z</time>
      </trkpt>
      <trkpt lat="47.28525" lon="-1.48533">
        <ele>27.7</ele>
        <time>2019-04-09T18:42:42Z</time>
      </trkpt>
      <trkpt lat="47.28516" lon="-1.48541">
        <ele>27.3</ele>
        <time>2019-04-09T18:42:46Z</time>
      </trkpt>
      <trkpt lat="47.28514" lon="-1.48542">
        <ele>27.2</ele>
        <time>2019-04-09T18:42:47Z</time>
      </trkpt>
      <trkpt lat="47.28501" lon="-1.48555">
        <ele>27</ele>
        <time>2019-04-09T18:42:53Z</time>
      </trkpt>
      <trkpt lat="47.28499" lon="-1.48557">
        <ele>26.9</ele>
        <time>2019-04-09T18:42:54Z</time>
      </trkpt>
      <trkpt lat="47.28491" lon="-1.48565">
        <ele>26.1</ele>
        <time>2019-04-09T18:42:59Z</time>
      </trkpt>
      <trkpt lat="47.28475" lon="-1.4858">
        <ele>25.1</ele>
        <time>2019-04-09T18:43:09Z</time>
      </trkpt>
      <trkpt lat="47.28465" lon="-1.48588">
        <ele>24.9</ele>
        <time>2019-04-09T18:43:13Z</time>
      </trkpt>
      <trkpt lat="47.28462" lon="-1.4859">
        <ele>24.8</ele>
        <time>2019-04-09T18:43:14Z</time>
      </trkpt>
      <trkpt lat="47.28451" lon="-1.48598">
        <ele>24.3</ele>
        <time>2019-04-09T18:43:19Z</time>
      </trkpt>
      <trkpt lat="47.28449" lon="-1.48599">
        <ele>24.2</ele>
        <time>2019-04-09T18:43:20Z</time>
      </trkpt>
      <trkpt lat="47.28433" lon="-1.48609">
        <ele>24</ele>
        <time>2019-04-09T18:43:26Z</time>
      </trkpt>
      <trkpt lat="47.2843" lon="-1.48612">
        <ele>24</ele>
        <time>2019-04-09T18:43:27Z</time>
      </trkpt>
      <trkpt lat="47.28425" lon="-1.48617">
        <ele>24.1</ele>
        <time>2019-04-09T18:43:29Z</time>
      </trkpt>
      <trkpt lat="47.28407" lon="-1.48629">
        <ele>23.8</ele>
        <time>2019-04-09T18:43:36Z</time>
      </trkpt>
      <trkpt lat="47.28387" lon="-1.48637">
        <ele>23</ele>
        <time>2019-04-09T18:43:43Z</time>
      </trkpt>
      <trkpt lat="47.28376" lon="-1.48633">
        <ele>22.8</ele>
        <time>2019-04-09T18:43:48Z</time>
      </trkpt>
      <trkpt lat="47.28374" lon="-1.48631">
        <ele>22.8</ele>
        <time>2019-04-09T18:43:49Z</time>
      </trkpt>
      <trkpt lat="47.28359" lon="-1.48618">
        <ele>22.7</ele>
        <time>2019-04-09T18:43:56Z</time>
      </trkpt>
      <trkpt lat="47.28342" lon="-1.48608">
        <ele>22.5</ele>
        <time>2019-04-09T18:44:03Z</time>
      </trkpt>
      <trkpt lat="47.28338" lon="-1.48612">
        <ele>22.1</ele>
        <time>2019-04-09T18:44:05Z</time>
      </trkpt>
      <trkpt lat="47.28329" lon="-1.48627">
        <ele>21.3</ele>
        <time>2019-04-09T18:44:10Z</time>
      </trkpt>
      <trkpt lat="47.28327" lon="-1.48631">
        <ele>21.1</ele>
        <time>2019-04-09T18:44:11Z</time>
      </trkpt>
      <trkpt lat="47.28318" lon="-1.48656">
        <ele>21</ele>
        <time>2019-04-09T18:44:18Z</time>
      </trkpt>
      <trkpt lat="47.28316" lon="-1.48683">
        <ele>21</ele>
        <time>2019-04-09T18:44:24Z</time>
      </trkpt>
      <trkpt lat="47.28313" lon="-1.48704">
        <ele>20.9</ele>
        <time>2019-04-09T18:44:29Z</time>
      </trkpt>
      <trkpt lat="47.28312" lon="-1.48708">
        <ele>20.9</ele>
        <time>2019-04-09T18:44:30Z</time>
      </trkpt>
      <trkpt lat="47.2831" lon="-1.48715">
        <ele>20.9</ele>
        <time>2019-04-09T18:44:32Z</time>
      </trkpt>
      <trkpt lat="47.28305" lon="-1.48731">
        <ele>21</ele>
        <time>2019-04-09T18:44:37Z</time>
      </trkpt>
      <trkpt lat="47.28304" lon="-1.48735">
        <ele>21</ele>
        <time>2019-04-09T18:44:38Z</time>
      </trkpt>
      <trkpt lat="47.28296" lon="-1.48758">
        <ele>21</ele>
        <time>2019-04-09T18:44:45Z</time>
      </trkpt>
      <trkpt lat="47.28294" lon="-1.48761">
        <ele>21</ele>
        <time>2019-04-09T18:44:46Z</time>
      </trkpt>
      <trkpt lat="47.28291" lon="-1.48767">
        <ele>21</ele>
        <time>2019-04-09T18:44:48Z</time>
      </trkpt>
      <trkpt lat="47.28288" lon="-1.48772">
        <ele>21</ele>
        <time>2019-04-09T18:44:50Z</time>
      </trkpt>
      <trkpt lat="47.28274" lon="-1.4879">
        <ele>20.6</ele>
        <time>2019-04-09T18:44:57Z</time>
      </trkpt>
      <trkpt lat="47.28271" lon="-1.48795">
        <ele>20.5</ele>
        <time>2019-04-09T18:44:59Z</time>
      </trkpt>
      <trkpt lat="47.28269" lon="-1.48797">
        <ele>20.5</ele>
        <time>2019-04-09T18:45:00Z</time>
      </trkpt>
      <trkpt lat="47.28255" lon="-1.48815">
        <ele>20.8</ele>
        <time>2019-04-09T18:45:08Z</time>
      </trkpt>
      <trkpt lat="47.28244" lon="-1.48829">
        <ele>21.2</ele>
        <time>2019-04-09T18:45:14Z</time>
      </trkpt>
      <trkpt lat="47.28242" lon="-1.48831">
        <ele>21.3</ele>
        <time>2019-04-09T18:45:15Z</time>
      </trkpt>
      <trkpt lat="47.2823" lon="-1.48847">
        <ele>21.3</ele>
        <time>2019-04-09T18:45:22Z</time>
      </trkpt>
      <trkpt lat="47.28228" lon="-1.48849">
        <ele>21.2</ele>
        <time>2019-04-09T18:45:23Z</time>
      </trkpt>
      <trkpt lat="47.28218" lon="-1.48863">
        <ele>21.1</ele>
        <time>2019-04-09T18:45:29Z</time>
      </trkpt>
      <trkpt lat="47.28216" lon="-1.48866">
        <ele>21.1</ele>
        <time>2019-04-09T18:45:30Z</time>
      </trkpt>
      <trkpt lat="47.2821" lon="-1.48878">
        <ele>20.8</ele>
        <time>2019-04-09T18:45:34Z</time>
      </trkpt>
      <trkpt lat="47.28194" lon="-1.48895">
        <ele>20.8</ele>
        <time>2019-04-09T18:45:42Z</time>
      </trkpt>
      <trkpt lat="47.2818" lon="-1.48913">
        <ele>21.1</ele>
        <time>2019-04-09T18:45:51Z</time>
      </trkpt>
      <trkpt lat="47.28179" lon="-1.48915">
        <ele>21.2</ele>
        <time>2019-04-09T18:45:52Z</time>
      </trkpt>
      <trkpt lat="47.28177" lon="-1.48917">
        <ele>21.2</ele>
        <time>2019-04-09T18:45:53Z</time>
      </trkpt>
      <trkpt lat="47.2817" lon="-1.48928">
        <ele>21.8</ele>
        <time>2019-04-09T18:45:57Z</time>
      </trkpt>
      <trkpt lat="47.28168" lon="-1.4893">
        <ele>21.9</ele>
        <time>2019-04-09T18:45:58Z</time>
      </trkpt>
      <trkpt lat="47.28156" lon="-1.48948">
        <ele>21.9</ele>
        <time>2019-04-09T18:46:05Z</time>
      </trkpt>
      <trkpt lat="47.28145" lon="-1.48962">
        <ele>21.9</ele>
        <time>2019-04-09T18:46:10Z</time>
      </trkpt>
      <trkpt lat="47.28141" lon="-1.48967">
        <ele>21.9</ele>
        <time>2019-04-09T18:46:12Z</time>
      </trkpt>
      <trkpt lat="47.28128" lon="-1.48987">
        <ele>22</ele>
        <time>2019-04-09T18:46:18Z</time>
      </trkpt>
      <trkpt lat="47.28119" lon="-1.48998">
        <ele>22</ele>
        <time>2019-04-09T18:46:22Z</time>
      </trkpt>
      <trkpt lat="47.28117" lon="-1.49001">
        <ele>22</ele>
        <time>2019-04-09T18:46:23Z</time>
      </trkpt>
      <trkpt lat="47.28102" lon="-1.4902">
        <ele>22</ele>
        <time>2019-04-09T18:46:30Z</time>
      </trkpt>
      <trkpt lat="47.28088" lon="-1.49037">
        <ele>21.9</ele>
        <time>2019-04-09T18:46:37Z</time>
      </trkpt>
      <trkpt lat="47.28083" lon="-1.49043">
        <ele>22</ele>
        <time>2019-04-09T18:46:39Z</time>
      </trkpt>
      <trkpt lat="47.28081" lon="-1.49045">
        <ele>22</ele>
        <time>2019-04-09T18:46:40Z</time>
      </trkpt>
      <trkpt lat="47.28067" lon="-1.49065">
        <ele>22.2</ele>
        <time>2019-04-09T18:46:48Z</time>
      </trkpt>
      <trkpt lat="47.28051" lon="-1.49081">
        <ele>22.9</ele>
        <time>2019-04-09T18:46:55Z</time>
      </trkpt>
      <trkpt lat="47.28044" lon="-1.4909">
        <ele>23</ele>
        <time>2019-04-09T18:46:58Z</time>
      </trkpt>
      <trkpt lat="47.28042" lon="-1.49093">
        <ele>23</ele>
        <time>2019-04-09T18:46:59Z</time>
      </trkpt>
      <trkpt lat="47.28033" lon="-1.49102">
        <ele>23</ele>
        <time>2019-04-09T18:47:03Z</time>
      </trkpt>
      <trkpt lat="47.28015" lon="-1.49116">
        <ele>23</ele>
        <time>2019-04-09T18:47:09Z</time>
      </trkpt>
      <trkpt lat="47.28003" lon="-1.49134">
        <ele>23</ele>
        <time>2019-04-09T18:47:15Z</time>
      </trkpt>
      <trkpt lat="47.28" lon="-1.49136">
        <ele>23</ele>
        <time>2019-04-09T18:47:16Z</time>
      </trkpt>
      <trkpt lat="47.27985" lon="-1.49157">
        <ele>23.8</ele>
        <time>2019-04-09T18:47:24Z</time>
      </trkpt>
      <trkpt lat="47.2798" lon="-1.49162">
        <ele>24</ele>
        <time>2019-04-09T18:47:26Z</time>
      </trkpt>
      <trkpt lat="47.27972" lon="-1.49172">
        <ele>24</ele>
        <time>2019-04-09T18:47:30Z</time>
      </trkpt>
      <trkpt lat="47.2797" lon="-1.49174">
        <ele>24</ele>
        <time>2019-04-09T18:47:31Z</time>
      </trkpt>
      <trkpt lat="47.27956" lon="-1.49191">
        <ele>24</ele>
        <time>2019-04-09T18:47:38Z</time>
      </trkpt>
      <trkpt lat="47.27955" lon="-1.49193">
        <ele>24</ele>
        <time>2019-04-09T18:47:39Z</time>
      </trkpt>
      <trkpt lat="47.27941" lon="-1.49211">
        <ele>24.1</ele>
        <time>2019-04-09T18:47:46Z</time>
      </trkpt>
      <trkpt lat="47.27924" lon="-1.49227">
        <ele>24.8</ele>
        <time>2019-04-09T18:47:54Z</time>
      </trkpt>
      <trkpt lat="47.2791" lon="-1.49245">
        <ele>25</ele>
        <time>2019-04-09T18:48:01Z</time>
      </trkpt>
      <trkpt lat="47.27908" lon="-1.49248">
        <ele>25</ele>
        <time>2019-04-09T18:48:02Z</time>
      </trkpt>
      <trkpt lat="47.27902" lon="-1.49256">
        <ele>25</ele>
        <time>2019-04-09T18:48:05Z</time>
      </trkpt>
      <trkpt lat="47.27887" lon="-1.49272">
        <ele>25.1</ele>
        <time>2019-04-09T18:48:12Z</time>
      </trkpt>
      <trkpt lat="47.27871" lon="-1.4929">
        <ele>25.6</ele>
        <time>2019-04-09T18:48:20Z</time>
      </trkpt>
      <trkpt lat="47.27869" lon="-1.49292">
        <ele>25.7</ele>
        <time>2019-04-09T18:48:21Z</time>
      </trkpt>
      <trkpt lat="47.27865" lon="-1.49297">
        <ele>25.9</ele>
        <time>2019-04-09T18:48:23Z</time>
      </trkpt>
      <trkpt lat="47.27851" lon="-1.49317">
        <ele>26.4</ele>
        <time>2019-04-09T18:48:31Z</time>
      </trkpt>
      <trkpt lat="47.27844" lon="-1.49324">
        <ele>26.6</ele>
        <time>2019-04-09T18:48:35Z</time>
      </trkpt>
      <trkpt lat="47.27842" lon="-1.49326">
        <ele>26.7</ele>
        <time>2019-04-09T18:48:36Z</time>
      </trkpt>
      <trkpt lat="47.27826" lon="-1.49344">
        <ele>26.7</ele>
        <time>2019-04-09T18:48:44Z</time>
      </trkpt>
      <trkpt lat="47.27821" lon="-1.49349">
        <ele>26.7</ele>
        <time>2019-04-09T18:48:46Z</time>
      </trkpt>
      <trkpt lat="47.27818" lon="-1.49354">
        <ele>26.7</ele>
        <time>2019-04-09T18:48:48Z</time>
      </trkpt>
      <trkpt lat="47.27815" lon="-1.49381">
        <ele>26.2</ele>
        <time>2019-04-09T18:48:54Z</time>
      </trkpt>
      <trkpt lat="47.27816" lon="-1.49384">
        <ele>26.1</ele>
        <time>2019-04-09T18:48:55Z</time>
      </trkpt>
      <trkpt lat="47.27816" lon="-1.49388">
        <ele>26</ele>
        <time>2019-04-09T18:48:56Z</time>
      </trkpt>
      <trkpt lat="47.27818" lon="-1.494">
        <ele>26</ele>
        <time>2019-04-09T18:48:59Z</time>
      </trkpt>
      <trkpt lat="47.27826" lon="-1.49414">
        <ele>26</ele>
        <time>2019-04-09T18:49:04Z</time>
      </trkpt>
      <trkpt lat="47.27828" lon="-1.49417">
        <ele>26</ele>
        <time>2019-04-09T18:49:05Z</time>
      </trkpt>
      <trkpt lat="47.27835" lon="-1.49429">
        <ele>26</ele>
        <time>2019-04-09T18:49:09Z</time>
      </trkpt>
      <trkpt lat="47.27837" lon="-1.49432">
        <ele>26</ele>
        <time>2019-04-09T18:49:10Z</time>
      </trkpt>
      <trkpt lat="47.2784" lon="-1.49438">
        <ele>26</ele>
        <time>2019-04-09T18:49:12Z</time>
      </trkpt>
      <trkpt lat="47.27847" lon="-1.49447">
        <ele>26</ele>
        <time>2019-04-09T18:49:15Z</time>
      </trkpt>
      <trkpt lat="47.27858" lon="-1.49468">
        <ele>26</ele>
        <time>2019-04-09T18:49:22Z</time>
      </trkpt>
      <trkpt lat="47.27865" lon="-1.49476">
        <ele>26</ele>
        <time>2019-04-09T18:49:25Z</time>
      </trkpt>
      <trkpt lat="47.27867" lon="-1.49478">
        <ele>26</ele>
        <time>2019-04-09T18:49:26Z</time>
      </trkpt>
      <trkpt lat="47.27874" lon="-1.49489">
        <ele>26</ele>
        <time>2019-04-09T18:49:30Z</time>
      </trkpt>
      <trkpt lat="47.27888" lon="-1.49509">
        <ele>26.3</ele>
        <time>2019-04-09T18:49:38Z</time>
      </trkpt>
      <trkpt lat="47.279" lon="-1.4953">
        <ele>26.6</ele>
        <time>2019-04-09T18:49:45Z</time>
      </trkpt>
      <trkpt lat="47.27904" lon="-1.49537">
        <ele>26.5</ele>
        <time>2019-04-09T18:49:47Z</time>
      </trkpt>
      <trkpt lat="47.27906" lon="-1.4954">
        <ele>26.4</ele>
        <time>2019-04-09T18:49:48Z</time>
      </trkpt>
      <trkpt lat="47.27917" lon="-1.49561">
        <ele>26.2</ele>
        <time>2019-04-09T18:49:55Z</time>
      </trkpt>
      <trkpt lat="47.2793" lon="-1.4958">
        <ele>26.5</ele>
        <time>2019-04-09T18:50:02Z</time>
      </trkpt>
      <trkpt lat="47.27942" lon="-1.49599">
        <ele>26</ele>
        <time>2019-04-09T18:50:09Z</time>
      </trkpt>
      <trkpt lat="47.27944" lon="-1.49602">
        <ele>26</ele>
        <time>2019-04-09T18:50:10Z</time>
      </trkpt>
      <trkpt lat="47.27953" lon="-1.49618">
        <ele>26</ele>
        <time>2019-04-09T18:50:14Z</time>
      </trkpt>
      <trkpt lat="47.27955" lon="-1.49622">
        <ele>26</ele>
        <time>2019-04-09T18:50:15Z</time>
      </trkpt>
      <trkpt lat="47.27961" lon="-1.49632">
        <ele>26</ele>
        <time>2019-04-09T18:50:18Z</time>
      </trkpt>
      <trkpt lat="47.27968" lon="-1.49652">
        <ele>26</ele>
        <time>2019-04-09T18:50:25Z</time>
      </trkpt>
      <trkpt lat="47.27969" lon="-1.49655">
        <ele>26</ele>
        <time>2019-04-09T18:50:26Z</time>
      </trkpt>
      <trkpt lat="47.27976" lon="-1.49665">
        <ele>26</ele>
        <time>2019-04-09T18:50:30Z</time>
      </trkpt>
      <trkpt lat="47.27982" lon="-1.49672">
        <ele>26</ele>
        <time>2019-04-09T18:50:33Z</time>
      </trkpt>
      <trkpt lat="47.27987" lon="-1.49683">
        <ele>26</ele>
        <time>2019-04-09T18:50:43Z</time>
      </trkpt>
      <trkpt lat="47.27991" lon="-1.49683">
        <ele>26</ele>
        <time>2019-04-09T18:53:21Z</time>
      </trkpt>
      <trkpt lat="47.28" lon="-1.49709">
        <ele>26</ele>
        <time>2019-04-09T18:53:30Z</time>
      </trkpt>
      <trkpt lat="47.28014" lon="-1.4973">
        <ele>26</ele>
        <time>2019-04-09T18:53:38Z</time>
      </trkpt>
      <trkpt lat="47.28017" lon="-1.49735">
        <ele>26</ele>
        <time>2019-04-09T18:53:40Z</time>
      </trkpt>
      <trkpt lat="47.2802" lon="-1.49741">
        <ele>26</ele>
        <time>2019-04-09T18:53:42Z</time>
      </trkpt>
      <trkpt lat="47.28027" lon="-1.49754">
        <ele>26</ele>
        <time>2019-04-09T18:53:47Z</time>
      </trkpt>
      <trkpt lat="47.28028" lon="-1.49757">
        <ele>26</ele>
        <time>2019-04-09T18:53:48Z</time>
      </trkpt>
      <trkpt lat="47.28041" lon="-1.49781">
        <ele>26</ele>
        <time>2019-04-09T18:53:56Z</time>
      </trkpt>
      <trkpt lat="47.28042" lon="-1.49784">
        <ele>26</ele>
        <time>2019-04-09T18:53:57Z</time>
      </trkpt>
      <trkpt lat="47.28048" lon="-1.49796">
        <ele>26</ele>
        <time>2019-04-09T18:54:01Z</time>
      </trkpt>
      <trkpt lat="47.28049" lon="-1.49799">
        <ele>26</ele>
        <time>2019-04-09T18:54:02Z</time>
      </trkpt>
      <trkpt lat="47.28063" lon="-1.4982">
        <ele>26</ele>
        <time>2019-04-09T18:54:10Z</time>
      </trkpt>
      <trkpt lat="47.28078" lon="-1.4984">
        <ele>26</ele>
        <time>2019-04-09T18:54:18Z</time>
      </trkpt>
      <trkpt lat="47.28085" lon="-1.49854">
        <ele>25.9</ele>
        <time>2019-04-09T18:54:25Z</time>
      </trkpt>
      <trkpt lat="47.28087" lon="-1.49855">
        <ele>25.9</ele>
        <time>2019-04-09T18:54:26Z</time>
      </trkpt>
      <trkpt lat="47.28106" lon="-1.49854">
        <ele>25.2</ele>
        <time>2019-04-09T18:54:36Z</time>
      </trkpt>
      <trkpt lat="47.28125" lon="-1.49852">
        <ele>24.7</ele>
        <time>2019-04-09T18:54:45Z</time>
      </trkpt>
      <trkpt lat="47.28145" lon="-1.49851">
        <ele>24.3</ele>
        <time>2019-04-09T18:54:54Z</time>
      </trkpt>
      <trkpt lat="47.28157" lon="-1.49871">
        <ele>24</ele>
        <time>2019-04-09T18:55:02Z</time>
      </trkpt>
      <trkpt lat="47.28158" lon="-1.49874">
        <ele>24</ele>
        <time>2019-04-09T18:55:03Z</time>
      </trkpt>
      <trkpt lat="47.28163" lon="-1.49891">
        <ele>24</ele>
        <time>2019-04-09T18:55:08Z</time>
      </trkpt>
      <trkpt lat="47.28164" lon="-1.49895">
        <ele>24</ele>
        <time>2019-04-09T18:55:09Z</time>
      </trkpt>
      <trkpt lat="47.28171" lon="-1.49921">
        <ele>23.7</ele>
        <time>2019-04-09T18:55:17Z</time>
      </trkpt>
      <trkpt lat="47.28173" lon="-1.49927">
        <ele>23.6</ele>
        <time>2019-04-09T18:55:19Z</time>
      </trkpt>
      <trkpt lat="47.28173" lon="-1.49929">
        <ele>23.5</ele>
        <time>2019-04-09T18:55:20Z</time>
      </trkpt>
      <trkpt lat="47.28176" lon="-1.49944">
        <ele>23.3</ele>
        <time>2019-04-09T18:55:24Z</time>
      </trkpt>
      <trkpt lat="47.28178" lon="-1.49952">
        <ele>23</ele>
        <time>2019-04-09T18:55:26Z</time>
      </trkpt>
      <trkpt lat="47.28182" lon="-1.49976">
        <ele>22.4</ele>
        <time>2019-04-09T18:55:33Z</time>
      </trkpt>
      <trkpt lat="47.28183" lon="-1.4998">
        <ele>22.4</ele>
        <time>2019-04-09T18:55:34Z</time>
      </trkpt>
      <trkpt lat="47.28188" lon="-1.50002">
        <ele>22.2</ele>
        <time>2019-04-09T18:55:41Z</time>
      </trkpt>
      <trkpt lat="47.28189" lon="-1.50006">
        <ele>22.2</ele>
        <time>2019-04-09T18:55:42Z</time>
      </trkpt>
      <trkpt lat="47.28196" lon="-1.5003">
        <ele>22</ele>
        <time>2019-04-09T18:55:49Z</time>
      </trkpt>
      <trkpt lat="47.28197" lon="-1.50033">
        <ele>21.9</ele>
        <time>2019-04-09T18:55:50Z</time>
      </trkpt>
      <trkpt lat="47.28201" lon="-1.5005">
        <ele>21.8</ele>
        <time>2019-04-09T18:55:55Z</time>
      </trkpt>
      <trkpt lat="47.28201" lon="-1.50053">
        <ele>21.8</ele>
        <time>2019-04-09T18:55:56Z</time>
      </trkpt>
      <trkpt lat="47.28207" lon="-1.5008">
        <ele>21.2</ele>
        <time>2019-04-09T18:56:04Z</time>
      </trkpt>
      <trkpt lat="47.28209" lon="-1.50094">
        <ele>20.9</ele>
        <time>2019-04-09T18:56:08Z</time>
      </trkpt>
      <trkpt lat="47.2821" lon="-1.50098">
        <ele>20.9</ele>
        <time>2019-04-09T18:56:09Z</time>
      </trkpt>
      <trkpt lat="47.28214" lon="-1.50126">
        <ele>20.4</ele>
        <time>2019-04-09T18:56:16Z</time>
      </trkpt>
      <trkpt lat="47.28215" lon="-1.5013">
        <ele>20.3</ele>
        <time>2019-04-09T18:56:17Z</time>
      </trkpt>
      <trkpt lat="47.28216" lon="-1.50134">
        <ele>20.3</ele>
        <time>2019-04-09T18:56:18Z</time>
      </trkpt>
      <trkpt lat="47.28219" lon="-1.50151">
        <ele>19.7</ele>
        <time>2019-04-09T18:56:23Z</time>
      </trkpt>
      <trkpt lat="47.2822" lon="-1.50154">
        <ele>19.5</ele>
        <time>2019-04-09T18:56:24Z</time>
      </trkpt>
      <trkpt lat="47.28223" lon="-1.50169">
        <ele>19</ele>
        <time>2019-04-09T18:56:28Z</time>
      </trkpt>
      <trkpt lat="47.28224" lon="-1.50172">
        <ele>18.9</ele>
        <time>2019-04-09T18:56:29Z</time>
      </trkpt>
      <trkpt lat="47.28229" lon="-1.50199">
        <ele>18.4</ele>
        <time>2019-04-09T18:56:37Z</time>
      </trkpt>
      <trkpt lat="47.28231" lon="-1.50206">
        <ele>18.1</ele>
        <time>2019-04-09T18:56:39Z</time>
      </trkpt>
      <trkpt lat="47.28232" lon="-1.50209">
        <ele>18</ele>
        <time>2019-04-09T18:56:40Z</time>
      </trkpt>
      <trkpt lat="47.28233" lon="-1.50216">
        <ele>17.7</ele>
        <time>2019-04-09T18:56:42Z</time>
      </trkpt>
      <trkpt lat="47.28236" lon="-1.50238">
        <ele>17</ele>
        <time>2019-04-09T18:56:48Z</time>
      </trkpt>
      <trkpt lat="47.28236" lon="-1.50241">
        <ele>16.8</ele>
        <time>2019-04-09T18:56:49Z</time>
      </trkpt>
      <trkpt lat="47.28241" lon="-1.5026">
        <ele>16.3</ele>
        <time>2019-04-09T18:56:55Z</time>
      </trkpt>
      <trkpt lat="47.28242" lon="-1.50263">
        <ele>16.3</ele>
        <time>2019-04-09T18:56:56Z</time>
      </trkpt>
      <trkpt lat="47.28252" lon="-1.50284">
        <ele>15.9</ele>
        <time>2019-04-09T18:57:06Z</time>
      </trkpt>
      <trkpt lat="47.28259" lon="-1.50298">
        <ele>15.7</ele>
        <time>2019-04-09T18:57:11Z</time>
      </trkpt>
      <trkpt lat="47.2826" lon="-1.50301">
        <ele>15.6</ele>
        <time>2019-04-09T18:57:12Z</time>
      </trkpt>
      <trkpt lat="47.28264" lon="-1.50329">
        <ele>15.5</ele>
        <time>2019-04-09T18:57:22Z</time>
      </trkpt>
      <trkpt lat="47.28268" lon="-1.50346">
        <ele>15.7</ele>
        <time>2019-04-09T18:57:28Z</time>
      </trkpt>
      <trkpt lat="47.28268" lon="-1.5035">
        <ele>15.7</ele>
        <time>2019-04-09T18:57:29Z</time>
      </trkpt>
      <trkpt lat="47.28275" lon="-1.50377">
        <ele>16</ele>
        <time>2019-04-09T18:57:37Z</time>
      </trkpt>
      <trkpt lat="47.28275" lon="-1.50381">
        <ele>16</ele>
        <time>2019-04-09T18:57:38Z</time>
      </trkpt>
      <trkpt lat="47.28277" lon="-1.50389">
        <ele>16</ele>
        <time>2019-04-09T18:57:40Z</time>
      </trkpt>
      <trkpt lat="47.28281" lon="-1.50406">
        <ele>16.6</ele>
        <time>2019-04-09T18:57:45Z</time>
      </trkpt>
      <trkpt lat="47.28282" lon="-1.5041">
        <ele>16.8</ele>
        <time>2019-04-09T18:57:46Z</time>
      </trkpt>
      <trkpt lat="47.28287" lon="-1.50435">
        <ele>17</ele>
        <time>2019-04-09T18:57:54Z</time>
      </trkpt>
      <trkpt lat="47.28291" lon="-1.50464">
        <ele>17</ele>
        <time>2019-04-09T18:58:02Z</time>
      </trkpt>
      <trkpt lat="47.28297" lon="-1.5049">
        <ele>17.4</ele>
        <time>2019-04-09T18:58:10Z</time>
      </trkpt>
      <trkpt lat="47.28302" lon="-1.50517">
        <ele>17.9</ele>
        <time>2019-04-09T18:58:18Z</time>
      </trkpt>
      <trkpt lat="47.28308" lon="-1.50544">
        <ele>18.6</ele>
        <time>2019-04-09T18:58:26Z</time>
      </trkpt>
      <trkpt lat="47.28325" lon="-1.50553">
        <ele>19</ele>
        <time>2019-04-09T18:58:34Z</time>
      </trkpt>
      <trkpt lat="47.28342" lon="-1.50554">
        <ele>19.3</ele>
        <time>2019-04-09T18:58:43Z</time>
      </trkpt>
      <trkpt lat="47.28353" lon="-1.50577">
        <ele>19.9</ele>
        <time>2019-04-09T18:58:53Z</time>
      </trkpt>
      <trkpt lat="47.28359" lon="-1.506">
        <ele>20.6</ele>
        <time>2019-04-09T18:59:01Z</time>
      </trkpt>
      <trkpt lat="47.28362" lon="-1.50617">
        <ele>20.8</ele>
        <time>2019-04-09T18:59:07Z</time>
      </trkpt>
      <trkpt lat="47.28362" lon="-1.5062">
        <ele>20.7</ele>
        <time>2019-04-09T18:59:08Z</time>
      </trkpt>
      <trkpt lat="47.28366" lon="-1.50646">
        <ele>20.3</ele>
        <time>2019-04-09T18:59:16Z</time>
      </trkpt>
      <trkpt lat="47.28368" lon="-1.50648">
        <ele>20.4</ele>
        <time>2019-04-09T18:59:17Z</time>
      </trkpt>
      <trkpt lat="47.28383" lon="-1.50666">
        <ele>20.2</ele>
        <time>2019-04-09T18:59:25Z</time>
      </trkpt>
      <trkpt lat="47.28398" lon="-1.50684">
        <ele>19.5</ele>
        <time>2019-04-09T18:59:33Z</time>
      </trkpt>
      <trkpt lat="47.28403" lon="-1.50692">
        <ele>19.1</ele>
        <time>2019-04-09T18:59:36Z</time>
      </trkpt>
      <trkpt lat="47.28405" lon="-1.50694">
        <ele>19</ele>
        <time>2019-04-09T18:59:37Z</time>
      </trkpt>
      <trkpt lat="47.28421" lon="-1.50711">
        <ele>18.6</ele>
        <time>2019-04-09T18:59:45Z</time>
      </trkpt>
      <trkpt lat="47.28423" lon="-1.50713">
        <ele>18.6</ele>
        <time>2019-04-09T18:59:46Z</time>
      </trkpt>
      <trkpt lat="47.28425" lon="-1.50716">
        <ele>18.6</ele>
        <time>2019-04-09T18:59:47Z</time>
      </trkpt>
      <trkpt lat="47.2844" lon="-1.50734">
        <ele>18.7</ele>
        <time>2019-04-09T18:59:55Z</time>
      </trkpt>
      <trkpt lat="47.28447" lon="-1.5074">
        <ele>18.3</ele>
        <time>2019-04-09T18:59:58Z</time>
      </trkpt>
      <trkpt lat="47.28449" lon="-1.50742">
        <ele>18.2</ele>
        <time>2019-04-09T18:59:59Z</time>
      </trkpt>
      <trkpt lat="47.28466" lon="-1.50757">
        <ele>17.2</ele>
        <time>2019-04-09T19:00:07Z</time>
      </trkpt>
      <trkpt lat="47.28477" lon="-1.50767">
        <ele>17</ele>
        <time>2019-04-09T19:00:12Z</time>
      </trkpt>
      <trkpt lat="47.28481" lon="-1.50773">
        <ele>16.8</ele>
        <time>2019-04-09T19:00:14Z</time>
      </trkpt>
      <trkpt lat="47.28498" lon="-1.5079">
        <ele>15.6</ele>
        <time>2019-04-09T19:00:21Z</time>
      </trkpt>
      <trkpt lat="47.285" lon="-1.50793">
        <ele>15.5</ele>
        <time>2019-04-09T19:00:22Z</time>
      </trkpt>
      <trkpt lat="47.28515" lon="-1.50809">
        <ele>15.9</ele>
        <time>2019-04-09T19:00:29Z</time>
      </trkpt>
      <trkpt lat="47.28532" lon="-1.50827">
        <ele>19</ele>
        <time>2019-04-09T19:00:37Z</time>
      </trkpt>
      <trkpt lat="47.28538" lon="-1.50835">
        <ele>19.3</ele>
        <time>2019-04-09T19:00:40Z</time>
      </trkpt>
      <trkpt lat="47.2854" lon="-1.50838">
        <ele>19.1</ele>
        <time>2019-04-09T19:00:41Z</time>
      </trkpt>
      <trkpt lat="47.28544" lon="-1.50842">
        <ele>18.6</ele>
        <time>2019-04-09T19:00:43Z</time>
      </trkpt>
      <trkpt lat="47.2856" lon="-1.50856">
        <ele>16.1</ele>
        <time>2019-04-09T19:00:50Z</time>
      </trkpt>
      <trkpt lat="47.28562" lon="-1.50859">
        <ele>15.7</ele>
        <time>2019-04-09T19:00:51Z</time>
      </trkpt>
      <trkpt lat="47.28567" lon="-1.50864">
        <ele>15.4</ele>
        <time>2019-04-09T19:00:53Z</time>
      </trkpt>
      <trkpt lat="47.28577" lon="-1.5087">
        <ele>14.9</ele>
        <time>2019-04-09T19:00:58Z</time>
      </trkpt>
      <trkpt lat="47.28579" lon="-1.50871">
        <ele>14.7</ele>
        <time>2019-04-09T19:00:59Z</time>
      </trkpt>
      <trkpt lat="47.28583" lon="-1.50875">
        <ele>14.5</ele>
        <time>2019-04-09T19:01:01Z</time>
      </trkpt>
      <trkpt lat="47.28603" lon="-1.50884">
        <ele>14.7</ele>
        <time>2019-04-09T19:01:09Z</time>
      </trkpt>
      <trkpt lat="47.28622" lon="-1.50889">
        <ele>15</ele>
        <time>2019-04-09T19:01:17Z</time>
      </trkpt>
      <trkpt lat="47.28624" lon="-1.50887">
        <ele>14.9</ele>
        <time>2019-04-09T19:01:18Z</time>
      </trkpt>
      <trkpt lat="47.28641" lon="-1.50874">
        <ele>15</ele>
        <time>2019-04-09T19:01:25Z</time>
      </trkpt>
      <trkpt lat="47.28649" lon="-1.5087">
        <ele>15</ele>
        <time>2019-04-09T19:01:28Z</time>
      </trkpt>
      <trkpt lat="47.28651" lon="-1.50869">
        <ele>15</ele>
        <time>2019-04-09T19:01:29Z</time>
      </trkpt>
      <trkpt lat="47.28669" lon="-1.50863">
        <ele>15.1</ele>
        <time>2019-04-09T19:01:39Z</time>
      </trkpt>
      <trkpt lat="47.2867" lon="-1.50864">
        <ele>15.1</ele>
        <time>2019-04-09T19:01:40Z</time>
      </trkpt>
      <trkpt lat="47.28672" lon="-1.50866">
        <ele>15.2</ele>
        <time>2019-04-09T19:01:41Z</time>
      </trkpt>
      <trkpt lat="47.28676" lon="-1.50891">
        <ele>15</ele>
        <time>2019-04-09T19:01:50Z</time>
      </trkpt>
      <trkpt lat="47.28677" lon="-1.50917">
        <ele>15.6</ele>
        <time>2019-04-09T19:01:58Z</time>
      </trkpt>
      <trkpt lat="47.28693" lon="-1.50918">
        <ele>15</ele>
        <time>2019-04-09T19:02:05Z</time>
      </trkpt>
      <trkpt lat="47.28698" lon="-1.50915">
        <ele>14.7</ele>
        <time>2019-04-09T19:02:07Z</time>
      </trkpt>
      <trkpt lat="47.28704" lon="-1.50888">
        <ele>14</ele>
        <time>2019-04-09T19:02:14Z</time>
      </trkpt>
      <trkpt lat="47.28706" lon="-1.50877">
        <ele>14.1</ele>
        <time>2019-04-09T19:02:17Z</time>
      </trkpt>
      <trkpt lat="47.28706" lon="-1.50874">
        <ele>14</ele>
        <time>2019-04-09T19:02:18Z</time>
      </trkpt>
      <trkpt lat="47.28715" lon="-1.50851">
        <ele>13.4</ele>
        <time>2019-04-09T19:02:26Z</time>
      </trkpt>
      <trkpt lat="47.28722" lon="-1.50836">
        <ele>13.8</ele>
        <time>2019-04-09T19:02:32Z</time>
      </trkpt>
      <trkpt lat="47.28724" lon="-1.50834">
        <ele>13.8</ele>
        <time>2019-04-09T19:02:33Z</time>
      </trkpt>
      <trkpt lat="47.28735" lon="-1.50811">
        <ele>13</ele>
        <time>2019-04-09T19:02:41Z</time>
      </trkpt>
      <trkpt lat="47.28736" lon="-1.50808">
        <ele>12.9</ele>
        <time>2019-04-09T19:02:42Z</time>
      </trkpt>
      <trkpt lat="47.28748" lon="-1.50787">
        <ele>13.3</ele>
        <time>2019-04-09T19:02:51Z</time>
      </trkpt>
      <trkpt lat="47.28761" lon="-1.50763">
        <ele>12.7</ele>
        <time>2019-04-09T19:02:58Z</time>
      </trkpt>
      <trkpt lat="47.2877" lon="-1.50744">
        <ele>12.7</ele>
        <time>2019-04-09T19:03:04Z</time>
      </trkpt>
      <trkpt lat="47.28772" lon="-1.50742">
        <ele>12.9</ele>
        <time>2019-04-09T19:03:05Z</time>
      </trkpt>
      <trkpt lat="47.28783" lon="-1.50736">
        <ele>13.3</ele>
        <time>2019-04-09T19:03:09Z</time>
      </trkpt>
      <trkpt lat="47.28794" lon="-1.50732">
        <ele>13.2</ele>
        <time>2019-04-09T19:03:21Z</time>
      </trkpt>
      <trkpt lat="47.28802" lon="-1.50722">
        <ele>13.3</ele>
        <time>2019-04-09T19:04:28Z</time>
      </trkpt>
      <trkpt lat="47.28811" lon="-1.50721">
        <ele>13.2</ele>
        <time>2019-04-09T19:04:32Z</time>
      </trkpt>
      <trkpt lat="47.28814" lon="-1.5072">
        <ele>13.2</ele>
        <time>2019-04-09T19:04:33Z</time>
      </trkpt>
      <trkpt lat="47.28823" lon="-1.50719">
        <ele>13.2</ele>
        <time>2019-04-09T19:04:37Z</time>
      </trkpt>
      <trkpt lat="47.2883" lon="-1.50714">
        <ele>13.2</ele>
        <time>2019-04-09T19:04:40Z</time>
      </trkpt>
      <trkpt lat="47.28835" lon="-1.5071">
        <ele>13</ele>
        <time>2019-04-09T19:04:43Z</time>
      </trkpt>
      <trkpt lat="47.28844" lon="-1.50702">
        <ele>12.9</ele>
        <time>2019-04-09T19:04:48Z</time>
      </trkpt>
      <trkpt lat="47.28846" lon="-1.50701">
        <ele>12.9</ele>
        <time>2019-04-09T19:04:49Z</time>
      </trkpt>
      <trkpt lat="47.28863" lon="-1.50688">
        <ele>13.5</ele>
        <time>2019-04-09T19:04:56Z</time>
      </trkpt>
      <trkpt lat="47.2887" lon="-1.50683">
        <ele>13.8</ele>
        <time>2019-04-09T19:04:59Z</time>
      </trkpt>
      <trkpt lat="47.28873" lon="-1.50682">
        <ele>13.9</ele>
        <time>2019-04-09T19:05:00Z</time>
      </trkpt>
      <trkpt lat="47.28884" lon="-1.5068">
        <ele>14</ele>
        <time>2019-04-09T19:05:05Z</time>
      </trkpt>
      <trkpt lat="47.28886" lon="-1.5068">
        <ele>14</ele>
        <time>2019-04-09T19:05:06Z</time>
      </trkpt>
      <trkpt lat="47.28891" lon="-1.5068">
        <ele>14</ele>
        <time>2019-04-09T19:05:08Z</time>
      </trkpt>
      <trkpt lat="47.28909" lon="-1.50681">
        <ele>14</ele>
        <time>2019-04-09T19:05:17Z</time>
      </trkpt>
      <trkpt lat="47.28911" lon="-1.50681">
        <ele>14</ele>
        <time>2019-04-09T19:05:18Z</time>
      </trkpt>
      <trkpt lat="47.2893" lon="-1.50683">
        <ele>13.7</ele>
        <time>2019-04-09T19:05:26Z</time>
      </trkpt>
      <trkpt lat="47.28951" lon="-1.50685">
        <ele>13.3</ele>
        <time>2019-04-09T19:05:34Z</time>
      </trkpt>
      <trkpt lat="47.28962" lon="-1.50667">
        <ele>14</ele>
        <time>2019-04-09T19:05:41Z</time>
      </trkpt>
      <trkpt lat="47.28966" lon="-1.50641">
        <ele>14.9</ele>
        <time>2019-04-09T19:05:48Z</time>
      </trkpt>
      <trkpt lat="47.2897" lon="-1.50615">
        <ele>15.9</ele>
        <time>2019-04-09T19:05:55Z</time>
      </trkpt>
      <trkpt lat="47.28971" lon="-1.50611">
        <ele>16</ele>
        <time>2019-04-09T19:05:56Z</time>
      </trkpt>
      <trkpt lat="47.28971" lon="-1.50607">
        <ele>16</ele>
        <time>2019-04-09T19:05:57Z</time>
      </trkpt>
      <trkpt lat="47.28971" lon="-1.50577">
        <ele>16.3</ele>
        <time>2019-04-09T19:06:05Z</time>
      </trkpt>
      <trkpt lat="47.2897" lon="-1.50565">
        <ele>16.7</ele>
        <time>2019-04-09T19:06:08Z</time>
      </trkpt>
      <trkpt lat="47.2897" lon="-1.50561">
        <ele>16.9</ele>
        <time>2019-04-09T19:06:09Z</time>
      </trkpt>
      <trkpt lat="47.28973" lon="-1.50535">
        <ele>17.8</ele>
        <time>2019-04-09T19:06:16Z</time>
      </trkpt>
      <trkpt lat="47.28974" lon="-1.5052">
        <ele>18.3</ele>
        <time>2019-04-09T19:06:20Z</time>
      </trkpt>
      <trkpt lat="47.28975" lon="-1.50516">
        <ele>18.4</ele>
        <time>2019-04-09T19:06:21Z</time>
      </trkpt>
      <trkpt lat="47.28977" lon="-1.50506">
        <ele>18.8</ele>
        <time>2019-04-09T19:06:24Z</time>
      </trkpt>
      <trkpt lat="47.2898" lon="-1.50486">
        <ele>19.5</ele>
        <time>2019-04-09T19:06:29Z</time>
      </trkpt>
      <trkpt lat="47.28981" lon="-1.50482">
        <ele>19.6</ele>
        <time>2019-04-09T19:06:30Z</time>
      </trkpt>
      <trkpt lat="47.28984" lon="-1.50454">
        <ele>20</ele>
        <time>2019-04-09T19:06:38Z</time>
      </trkpt>
      <trkpt lat="47.28986" lon="-1.50443">
        <ele>20</ele>
        <time>2019-04-09T19:06:41Z</time>
      </trkpt>
      <trkpt lat="47.28987" lon="-1.50439">
        <ele>20</ele>
        <time>2019-04-09T19:06:42Z</time>
      </trkpt>
      <trkpt lat="47.28989" lon="-1.50432">
        <ele>20</ele>
        <time>2019-04-09T19:06:44Z</time>
      </trkpt>
      <trkpt lat="47.29" lon="-1.50408">
        <ele>20</ele>
        <time>2019-04-09T19:06:52Z</time>
      </trkpt>
      <trkpt lat="47.29001" lon="-1.50406">
        <ele>20</ele>
        <time>2019-04-09T19:06:53Z</time>
      </trkpt>
      <trkpt lat="47.29015" lon="-1.50387">
        <ele>20</ele>
        <time>2019-04-09T19:07:00Z</time>
      </trkpt>
      <trkpt lat="47.29022" lon="-1.5038">
        <ele>20.1</ele>
        <time>2019-04-09T19:07:03Z</time>
      </trkpt>
      <trkpt lat="47.29024" lon="-1.50377">
        <ele>20.1</ele>
        <time>2019-04-09T19:07:04Z</time>
      </trkpt>
      <trkpt lat="47.2904" lon="-1.50361">
        <ele>20</ele>
        <time>2019-04-09T19:07:12Z</time>
      </trkpt>
      <trkpt lat="47.29045" lon="-1.50359">
        <ele>20</ele>
        <time>2019-04-09T19:07:14Z</time>
      </trkpt>
      <trkpt lat="47.29047" lon="-1.50357">
        <ele>20</ele>
        <time>2019-04-09T19:07:15Z</time>
      </trkpt>
      <trkpt lat="47.29055" lon="-1.50348">
        <ele>20</ele>
        <time>2019-04-09T19:07:19Z</time>
      </trkpt>
      <trkpt lat="47.29058" lon="-1.50347">
        <ele>20</ele>
        <time>2019-04-09T19:07:20Z</time>
      </trkpt>
      <trkpt lat="47.29074" lon="-1.5033">
        <ele>19.3</ele>
        <time>2019-04-09T19:07:28Z</time>
      </trkpt>
      <trkpt lat="47.29088" lon="-1.50307">
        <ele>19</ele>
        <time>2019-04-09T19:07:36Z</time>
      </trkpt>
      <trkpt lat="47.29104" lon="-1.50292">
        <ele>18.6</ele>
        <time>2019-04-09T19:07:43Z</time>
      </trkpt>
      <trkpt lat="47.29121" lon="-1.50293">
        <ele>18.3</ele>
        <time>2019-04-09T19:07:51Z</time>
      </trkpt>
      <trkpt lat="47.2914" lon="-1.50303">
        <ele>18</ele>
        <time>2019-04-09T19:07:59Z</time>
      </trkpt>
      <trkpt lat="47.29146" lon="-1.50309">
        <ele>18</ele>
        <time>2019-04-09T19:08:02Z</time>
      </trkpt>
      <trkpt lat="47.29148" lon="-1.50311">
        <ele>18</ele>
        <time>2019-04-09T19:08:03Z</time>
      </trkpt>
      <trkpt lat="47.29165" lon="-1.50321">
        <ele>18</ele>
        <time>2019-04-09T19:08:10Z</time>
      </trkpt>
      <trkpt lat="47.2917" lon="-1.50324">
        <ele>17.9</ele>
        <time>2019-04-09T19:08:12Z</time>
      </trkpt>
      <trkpt lat="47.29176" lon="-1.50326">
        <ele>17.7</ele>
        <time>2019-04-09T19:08:14Z</time>
      </trkpt>
      <trkpt lat="47.29189" lon="-1.50304">
        <ele>17.2</ele>
        <time>2019-04-09T19:08:21Z</time>
      </trkpt>
      <trkpt lat="47.29194" lon="-1.50289">
        <ele>16.4</ele>
        <time>2019-04-09T19:08:25Z</time>
      </trkpt>
      <trkpt lat="47.29196" lon="-1.50278">
        <ele>16</ele>
        <time>2019-04-09T19:08:28Z</time>
      </trkpt>
      <trkpt lat="47.29199" lon="-1.50267">
        <ele>15.6</ele>
        <time>2019-04-09T19:08:31Z</time>
      </trkpt>
      <trkpt lat="47.2921" lon="-1.50243">
        <ele>14.3</ele>
        <time>2019-04-09T19:08:39Z</time>
      </trkpt>
      <trkpt lat="47.29212" lon="-1.50239">
        <ele>14.1</ele>
        <time>2019-04-09T19:08:40Z</time>
      </trkpt>
      <trkpt lat="47.29213" lon="-1.50236">
        <ele>14</ele>
        <time>2019-04-09T19:08:41Z</time>
      </trkpt>
      <trkpt lat="47.29217" lon="-1.50222">
        <ele>13.4</ele>
        <time>2019-04-09T19:08:45Z</time>
      </trkpt>
      <trkpt lat="47.29222" lon="-1.50196">
        <ele>12.1</ele>
        <time>2019-04-09T19:08:53Z</time>
      </trkpt>
      <trkpt lat="47.29234" lon="-1.50176">
        <ele>9.6</ele>
        <time>2019-04-09T19:09:01Z</time>
      </trkpt>
      <trkpt lat="47.29244" lon="-1.50158">
        <ele>7.6</ele>
        <time>2019-04-09T19:09:10Z</time>
      </trkpt>
      <trkpt lat="47.29226" lon="-1.50148">
        <ele>7.5</ele>
        <time>2019-04-09T19:09:19Z</time>
      </trkpt>
      <trkpt lat="47.29223" lon="-1.50147">
        <ele>7.6</ele>
        <time>2019-04-09T19:09:20Z</time>
      </trkpt>
      <trkpt lat="47.2922" lon="-1.50147">
        <ele>7.7</ele>
        <time>2019-04-09T19:09:21Z</time>
      </trkpt>
      <trkpt lat="47.29202" lon="-1.50148">
        <ele>8.3</ele>
        <time>2019-04-09T19:09:29Z</time>
      </trkpt>
      <trkpt lat="47.29188" lon="-1.50145">
        <ele>8.9</ele>
        <time>2019-04-09T19:09:35Z</time>
      </trkpt>
      <trkpt lat="47.29185" lon="-1.50144">
        <ele>9</ele>
        <time>2019-04-09T19:09:36Z</time>
      </trkpt>
      <trkpt lat="47.29168" lon="-1.50137">
        <ele>9.9</ele>
        <time>2019-04-09T19:09:44Z</time>
      </trkpt>
      <trkpt lat="47.2917" lon="-1.50112">
        <ele>8.9</ele>
        <time>2019-04-09T19:09:52Z</time>
      </trkpt>
      <trkpt lat="47.29173" lon="-1.50085">
        <ele>8.8</ele>
        <time>2019-04-09T19:10:00Z</time>
      </trkpt>
      <trkpt lat="47.29185" lon="-1.5007">
        <ele>9.8</ele>
        <time>2019-04-09T19:10:08Z</time>
      </trkpt>
      <trkpt lat="47.29189" lon="-1.5007">
        <ele>9.9</ele>
        <time>2019-04-09T19:10:10Z</time>
      </trkpt>
      <trkpt lat="47.29192" lon="-1.5007">
        <ele>9.9</ele>
        <time>2019-04-09T19:10:11Z</time>
      </trkpt>
      <trkpt lat="47.29211" lon="-1.50066">
        <ele>10.1</ele>
        <time>2019-04-09T19:10:19Z</time>
      </trkpt>
      <trkpt lat="47.29229" lon="-1.50056">
        <ele>10.7</ele>
        <time>2019-04-09T19:10:27Z</time>
      </trkpt>
      <trkpt lat="47.29247" lon="-1.50048">
        <ele>10.4</ele>
        <time>2019-04-09T19:10:34Z</time>
      </trkpt>
      <trkpt lat="47.29252" lon="-1.50045">
        <ele>10.2</ele>
        <time>2019-04-09T19:10:36Z</time>
      </trkpt>
      <trkpt lat="47.29257" lon="-1.50042">
        <ele>10</ele>
        <time>2019-04-09T19:10:38Z</time>
      </trkpt>
      <trkpt lat="47.29273" lon="-1.50028">
        <ele>9.4</ele>
        <time>2019-04-09T19:10:46Z</time>
      </trkpt>
      <trkpt lat="47.29279" lon="-1.50022">
        <ele>9.6</ele>
        <time>2019-04-09T19:10:49Z</time>
      </trkpt>
      <trkpt lat="47.29284" lon="-1.50017">
        <ele>9.9</ele>
        <time>2019-04-09T19:10:52Z</time>
      </trkpt>
      <trkpt lat="47.293" lon="-1.5">
        <ele>10.4</ele>
        <time>2019-04-09T19:11:00Z</time>
      </trkpt>
      <trkpt lat="47.2931" lon="-1.49991">
        <ele>10.4</ele>
        <time>2019-04-09T19:11:05Z</time>
      </trkpt>
      <trkpt lat="47.29313" lon="-1.4999">
        <ele>10.5</ele>
        <time>2019-04-09T19:11:06Z</time>
      </trkpt>
      <trkpt lat="47.29331" lon="-1.4998">
        <ele>10.5</ele>
        <time>2019-04-09T19:11:13Z</time>
      </trkpt>
      <trkpt lat="47.29333" lon="-1.49979">
        <ele>10.5</ele>
        <time>2019-04-09T19:11:14Z</time>
      </trkpt>
      <trkpt lat="47.29335" lon="-1.49977">
        <ele>10.6</ele>
        <time>2019-04-09T19:11:15Z</time>
      </trkpt>
      <trkpt lat="47.29351" lon="-1.49958">
        <ele>11.1</ele>
        <time>2019-04-09T19:11:23Z</time>
      </trkpt>
      <trkpt lat="47.29352" lon="-1.49954">
        <ele>11.2</ele>
        <time>2019-04-09T19:11:24Z</time>
      </trkpt>
      <trkpt lat="47.2936" lon="-1.49938">
        <ele>11.3</ele>
        <time>2019-04-09T19:11:29Z</time>
      </trkpt>
      <trkpt lat="47.29362" lon="-1.49935">
        <ele>11.3</ele>
        <time>2019-04-09T19:11:30Z</time>
      </trkpt>
      <trkpt lat="47.29374" lon="-1.49917">
        <ele>11.1</ele>
        <time>2019-04-09T19:11:36Z</time>
      </trkpt>
      <trkpt lat="47.29375" lon="-1.49915">
        <ele>11</ele>
        <time>2019-04-09T19:11:37Z</time>
      </trkpt>
      <trkpt lat="47.29383" lon="-1.49904">
        <ele>10.8</ele>
        <time>2019-04-09T19:11:50Z</time>
      </trkpt>
      <trkpt lat="47.29397" lon="-1.49907">
        <ele>10</ele>
        <time>2019-04-09T19:12:47Z</time>
      </trkpt>
      <trkpt lat="47.29416" lon="-1.49917">
        <ele>9.1</ele>
        <time>2019-04-09T19:12:55Z</time>
      </trkpt>
      <trkpt lat="47.29434" lon="-1.49921">
        <ele>8.3</ele>
        <time>2019-04-09T19:13:02Z</time>
      </trkpt>
      <trkpt lat="47.29447" lon="-1.49931">
        <ele>7.5</ele>
        <time>2019-04-09T19:13:08Z</time>
      </trkpt>
      <trkpt lat="47.29451" lon="-1.49935">
        <ele>7.3</ele>
        <time>2019-04-09T19:13:10Z</time>
      </trkpt>
      <trkpt lat="47.29468" lon="-1.49951">
        <ele>6.8</ele>
        <time>2019-04-09T19:13:17Z</time>
      </trkpt>
      <trkpt lat="47.29486" lon="-1.49956">
        <ele>6.6</ele>
        <time>2019-04-09T19:13:25Z</time>
      </trkpt>
      <trkpt lat="47.29489" lon="-1.49954">
        <ele>6.6</ele>
        <time>2019-04-09T19:13:26Z</time>
      </trkpt>
      <trkpt lat="47.29507" lon="-1.49947">
        <ele>6.9</ele>
        <time>2019-04-09T19:13:33Z</time>
      </trkpt>
      <trkpt lat="47.29523" lon="-1.49943">
        <ele>7.1</ele>
        <time>2019-04-09T19:13:40Z</time>
      </trkpt>
      <trkpt lat="47.29526" lon="-1.49942">
        <ele>7.1</ele>
        <time>2019-04-09T19:13:41Z</time>
      </trkpt>
      <trkpt lat="47.29532" lon="-1.49938">
        <ele>7.2</ele>
        <time>2019-04-09T19:13:44Z</time>
      </trkpt>
      <trkpt lat="47.29551" lon="-1.49938">
        <ele>7.2</ele>
        <time>2019-04-09T19:13:52Z</time>
      </trkpt>
      <trkpt lat="47.29561" lon="-1.49938">
        <ele>7.2</ele>
        <time>2019-04-09T19:13:56Z</time>
      </trkpt>
      <trkpt lat="47.29567" lon="-1.49936">
        <ele>7.3</ele>
        <time>2019-04-09T19:13:58Z</time>
      </trkpt>
      <trkpt lat="47.29582" lon="-1.49931">
        <ele>7.5</ele>
        <time>2019-04-09T19:14:04Z</time>
      </trkpt>
      <trkpt lat="47.29585" lon="-1.4993">
        <ele>7.5</ele>
        <time>2019-04-09T19:14:05Z</time>
      </trkpt>
      <trkpt lat="47.29595" lon="-1.4993">
        <ele>7.3</ele>
        <time>2019-04-09T19:14:09Z</time>
      </trkpt>
      <trkpt lat="47.2961" lon="-1.49925">
        <ele>7.4</ele>
        <time>2019-04-09T19:14:15Z</time>
      </trkpt>
      <trkpt lat="47.29614" lon="-1.49924">
        <ele>7.4</ele>
        <time>2019-04-09T19:14:17Z</time>
      </trkpt>
      <trkpt lat="47.29623" lon="-1.49923">
        <ele>7.2</ele>
        <time>2019-04-09T19:14:21Z</time>
      </trkpt>
      <trkpt lat="47.29626" lon="-1.49922">
        <ele>7.2</ele>
        <time>2019-04-09T19:14:22Z</time>
      </trkpt>
      <trkpt lat="47.29636" lon="-1.4992">
        <ele>7</ele>
        <time>2019-04-09T19:14:26Z</time>
      </trkpt>
      <trkpt lat="47.29655" lon="-1.49917">
        <ele>7</ele>
        <time>2019-04-09T19:14:33Z</time>
      </trkpt>
      <trkpt lat="47.2966" lon="-1.49917">
        <ele>7</ele>
        <time>2019-04-09T19:14:35Z</time>
      </trkpt>
      <trkpt lat="47.29665" lon="-1.49919">
        <ele>6.9</ele>
        <time>2019-04-09T19:14:37Z</time>
      </trkpt>
      <trkpt lat="47.29685" lon="-1.49919">
        <ele>6.3</ele>
        <time>2019-04-09T19:14:45Z</time>
      </trkpt>
      <trkpt lat="47.29687" lon="-1.49918">
        <ele>6.3</ele>
        <time>2019-04-09T19:14:46Z</time>
      </trkpt>
      <trkpt lat="47.29689" lon="-1.49916">
        <ele>6.2</ele>
        <time>2019-04-09T19:14:47Z</time>
      </trkpt>
      <trkpt lat="47.29706" lon="-1.49904">
        <ele>6.1</ele>
        <time>2019-04-09T19:14:53Z</time>
      </trkpt>
      <trkpt lat="47.2971" lon="-1.49899">
        <ele>6.1</ele>
        <time>2019-04-09T19:14:55Z</time>
      </trkpt>
      <trkpt lat="47.29724" lon="-1.49879">
        <ele>6.4</ele>
        <time>2019-04-09T19:15:03Z</time>
      </trkpt>
      <trkpt lat="47.29744" lon="-1.49887">
        <ele>6.1</ele>
        <time>2019-04-09T19:15:11Z</time>
      </trkpt>
      <trkpt lat="47.29763" lon="-1.49892">
        <ele>6.1</ele>
        <time>2019-04-09T19:15:19Z</time>
      </trkpt>
      <trkpt lat="47.29774" lon="-1.49894">
        <ele>6.2</ele>
        <time>2019-04-09T19:15:24Z</time>
      </trkpt>
      <trkpt lat="47.29776" lon="-1.49895">
        <ele>6.2</ele>
        <time>2019-04-09T19:15:25Z</time>
      </trkpt>
      <trkpt lat="47.29787" lon="-1.49894">
        <ele>6.5</ele>
        <time>2019-04-09T19:15:30Z</time>
      </trkpt>
      <trkpt lat="47.29789" lon="-1.49893">
        <ele>6.5</ele>
        <time>2019-04-09T19:15:31Z</time>
      </trkpt>
      <trkpt lat="47.29793" lon="-1.49892">
        <ele>6.7</ele>
        <time>2019-04-09T19:15:33Z</time>
      </trkpt>
      <trkpt lat="47.29809" lon="-1.49877">
        <ele>7.3</ele>
        <time>2019-04-09T19:15:42Z</time>
      </trkpt>
      <trkpt lat="47.29819" lon="-1.49854">
        <ele>7.4</ele>
        <time>2019-04-09T19:15:52Z</time>
      </trkpt>
      <trkpt lat="47.29828" lon="-1.49829">
        <ele>7.7</ele>
        <time>2019-04-09T19:16:00Z</time>
      </trkpt>
      <trkpt lat="47.29832" lon="-1.49807">
        <ele>8</ele>
        <time>2019-04-09T19:16:07Z</time>
      </trkpt>
      <trkpt lat="47.29832" lon="-1.49804">
        <ele>8</ele>
        <time>2019-04-09T19:16:08Z</time>
      </trkpt>
      <trkpt lat="47.29838" lon="-1.49786">
        <ele>8</ele>
        <time>2019-04-09T19:16:20Z</time>
      </trkpt>
      <trkpt lat="47.29839" lon="-1.49785">
        <ele>8</ele>
        <time>2019-04-09T19:16:21Z</time>
      </trkpt>
      <trkpt lat="47.29848" lon="-1.49781">
        <ele>7.7</ele>
        <time>2019-04-09T19:16:25Z</time>
      </trkpt>
      <trkpt lat="47.29864" lon="-1.49792">
        <ele>8.4</ele>
        <time>2019-04-09T19:16:33Z</time>
      </trkpt>
      <trkpt lat="47.29881" lon="-1.49808">
        <ele>8.1</ele>
        <time>2019-04-09T19:16:42Z</time>
      </trkpt>
      <trkpt lat="47.29893" lon="-1.49806">
        <ele>7.4</ele>
        <time>2019-04-09T19:16:47Z</time>
      </trkpt>
      <trkpt lat="47.29896" lon="-1.49806">
        <ele>7.6</ele>
        <time>2019-04-09T19:16:48Z</time>
      </trkpt>
      <trkpt lat="47.299" lon="-1.49807">
        <ele>8</ele>
        <time>2019-04-09T19:16:50Z</time>
      </trkpt>
      <trkpt lat="47.29919" lon="-1.49808">
        <ele>9.2</ele>
        <time>2019-04-09T19:16:59Z</time>
      </trkpt>
      <trkpt lat="47.29938" lon="-1.49802">
        <ele>8.7</ele>
        <time>2019-04-09T19:17:06Z</time>
      </trkpt>
      <trkpt lat="47.29943" lon="-1.49801">
        <ele>8.6</ele>
        <time>2019-04-09T19:17:08Z</time>
      </trkpt>
      <trkpt lat="47.29946" lon="-1.498">
        <ele>8.6</ele>
        <time>2019-04-09T19:17:09Z</time>
      </trkpt>
      <trkpt lat="47.29964" lon="-1.49787">
        <ele>7.9</ele>
        <time>2019-04-09T19:17:16Z</time>
      </trkpt>
      <trkpt lat="47.29974" lon="-1.49778">
        <ele>7.1</ele>
        <time>2019-04-09T19:17:20Z</time>
      </trkpt>
      <trkpt lat="47.29979" lon="-1.49771">
        <ele>6.9</ele>
        <time>2019-04-09T19:17:23Z</time>
      </trkpt>
      <trkpt lat="47.29983" lon="-1.49765">
        <ele>6.8</ele>
        <time>2019-04-09T19:17:25Z</time>
      </trkpt>
      <trkpt lat="47.29992" lon="-1.49752">
        <ele>6.1</ele>
        <time>2019-04-09T19:17:29Z</time>
      </trkpt>
      <trkpt lat="47.29994" lon="-1.49749">
        <ele>6</ele>
        <time>2019-04-09T19:17:30Z</time>
      </trkpt>
      <trkpt lat="47.29997" lon="-1.49741">
        <ele>6</ele>
        <time>2019-04-09T19:17:32Z</time>
      </trkpt>
      <trkpt lat="47.30002" lon="-1.49725">
        <ele>6</ele>
        <time>2019-04-09T19:17:36Z</time>
      </trkpt>
      <trkpt lat="47.3" lon="-1.49698">
        <ele>6</ele>
        <time>2019-04-09T19:17:43Z</time>
      </trkpt>
      <trkpt lat="47.29992" lon="-1.49682">
        <ele>6</ele>
        <time>2019-04-09T19:17:49Z</time>
      </trkpt>
      <trkpt lat="47.29991" lon="-1.49679">
        <ele>6</ele>
        <time>2019-04-09T19:17:50Z</time>
      </trkpt>
      <trkpt lat="47.29988" lon="-1.49653">
        <ele>6.2</ele>
        <time>2019-04-09T19:17:58Z</time>
      </trkpt>
      <trkpt lat="47.29998" lon="-1.49632">
        <ele>6.1</ele>
        <time>2019-04-09T19:18:06Z</time>
      </trkpt>
      <trkpt lat="47.30004" lon="-1.49628">
        <ele>6</ele>
        <time>2019-04-09T19:18:09Z</time>
      </trkpt>
      <trkpt lat="47.30006" lon="-1.49626">
        <ele>6</ele>
        <time>2019-04-09T19:18:10Z</time>
      </trkpt>
      <trkpt lat="47.30021" lon="-1.4961">
        <ele>6</ele>
        <time>2019-04-09T19:18:18Z</time>
      </trkpt>
      <trkpt lat="47.30023" lon="-1.49607">
        <ele>6.1</ele>
        <time>2019-04-09T19:18:19Z</time>
      </trkpt>
      <trkpt lat="47.30028" lon="-1.49579">
        <ele>6.1</ele>
        <time>2019-04-09T19:18:26Z</time>
      </trkpt>
      <trkpt lat="47.30032" lon="-1.49552">
        <ele>7</ele>
        <time>2019-04-09T19:18:34Z</time>
      </trkpt>
      <trkpt lat="47.3004" lon="-1.49536">
        <ele>7</ele>
        <time>2019-04-09T19:18:40Z</time>
      </trkpt>
      <trkpt lat="47.30041" lon="-1.49533">
        <ele>6.9</ele>
        <time>2019-04-09T19:18:41Z</time>
      </trkpt>
      <trkpt lat="47.30052" lon="-1.49511">
        <ele>6.8</ele>
        <time>2019-04-09T19:18:50Z</time>
      </trkpt>
      <trkpt lat="47.30052" lon="-1.49496">
        <ele>7.1</ele>
        <time>2019-04-09T19:18:54Z</time>
      </trkpt>
      <trkpt lat="47.30052" lon="-1.49492">
        <ele>7.1</ele>
        <time>2019-04-09T19:18:55Z</time>
      </trkpt>
      <trkpt lat="47.30049" lon="-1.49466">
        <ele>7.5</ele>
        <time>2019-04-09T19:19:03Z</time>
      </trkpt>
      <trkpt lat="47.30044" lon="-1.49437">
        <ele>8.7</ele>
        <time>2019-04-09T19:19:12Z</time>
      </trkpt>
      <trkpt lat="47.30036" lon="-1.49413">
        <ele>9.8</ele>
        <time>2019-04-09T19:19:21Z</time>
      </trkpt>
      <trkpt lat="47.30023" lon="-1.49398">
        <ele>11</ele>
        <time>2019-04-09T19:19:29Z</time>
      </trkpt>
      <trkpt lat="47.30022" lon="-1.49396">
        <ele>11.2</ele>
        <time>2019-04-09T19:19:30Z</time>
      </trkpt>
      <trkpt lat="47.30005" lon="-1.49387">
        <ele>12.7</ele>
        <time>2019-04-09T19:19:38Z</time>
      </trkpt>
      <trkpt lat="47.30002" lon="-1.49378">
        <ele>13.2</ele>
        <time>2019-04-09T19:19:41Z</time>
      </trkpt>
      <trkpt lat="47.30001" lon="-1.49374">
        <ele>13.4</ele>
        <time>2019-04-09T19:19:42Z</time>
      </trkpt>
      <trkpt lat="47.29989" lon="-1.49355">
        <ele>15.4</ele>
        <time>2019-04-09T19:19:52Z</time>
      </trkpt>
      <trkpt lat="47.29974" lon="-1.49337">
        <ele>17.6</ele>
        <time>2019-04-09T19:20:03Z</time>
      </trkpt>
      <trkpt lat="47.2997" lon="-1.49329">
        <ele>17.9</ele>
        <time>2019-04-09T19:20:06Z</time>
      </trkpt>
      <trkpt lat="47.29968" lon="-1.49326">
        <ele>17.9</ele>
        <time>2019-04-09T19:20:07Z</time>
      </trkpt>
      <trkpt lat="47.29961" lon="-1.49308">
        <ele>17.9</ele>
        <time>2019-04-09T19:20:13Z</time>
      </trkpt>
      <trkpt lat="47.2996" lon="-1.49304">
        <ele>17.9</ele>
        <time>2019-04-09T19:20:14Z</time>
      </trkpt>
      <trkpt lat="47.29952" lon="-1.49294">
        <ele>19.2</ele>
        <time>2019-04-09T19:20:18Z</time>
      </trkpt>
      <trkpt lat="47.2995" lon="-1.49291">
        <ele>19.5</ele>
        <time>2019-04-09T19:20:19Z</time>
      </trkpt>
      <trkpt lat="47.2995" lon="-1.49285">
        <ele>20</ele>
        <time>2019-04-09T19:20:21Z</time>
      </trkpt>
      <trkpt lat="47.29946" lon="-1.49259">
        <ele>21.6</ele>
        <time>2019-04-09T19:20:32Z</time>
      </trkpt>
      <trkpt lat="47.29936" lon="-1.49248">
        <ele>23.3</ele>
        <time>2019-04-09T19:20:50Z</time>
      </trkpt>
      <trkpt lat="47.29916" lon="-1.49244">
        <ele>26.3</ele>
        <time>2019-04-09T19:20:58Z</time>
      </trkpt>
      <trkpt lat="47.29909" lon="-1.49231">
        <ele>27.2</ele>
        <time>2019-04-09T19:21:02Z</time>
      </trkpt>
      <trkpt lat="47.29908" lon="-1.49229">
        <ele>27.4</ele>
        <time>2019-04-09T19:21:03Z</time>
      </trkpt>
      <trkpt lat="47.29904" lon="-1.49223">
        <ele>27.9</ele>
        <time>2019-04-09T19:21:06Z</time>
      </trkpt>
      <trkpt lat="47.29902" lon="-1.49221">
        <ele>28</ele>
        <time>2019-04-09T19:21:13Z</time>
      </trkpt>
      <trkpt lat="47.29898" lon="-1.49202">
        <ele>28.4</ele>
        <time>2019-04-09T19:22:34Z</time>
      </trkpt>
      <trkpt lat="47.29887" lon="-1.49182">
        <ele>29.5</ele>
        <time>2019-04-09T19:22:50Z</time>
      </trkpt>
      <trkpt lat="47.29888" lon="-1.49178">
        <ele>29.7</ele>
        <time>2019-04-09T19:22:54Z</time>
      </trkpt>
      <trkpt lat="47.2989" lon="-1.49171">
        <ele>29.7</ele>
        <time>2019-04-09T19:22:58Z</time>
      </trkpt>
      <trkpt lat="47.2989" lon="-1.4917">
        <ele>29.7</ele>
        <time>2019-04-09T19:22:59Z</time>
      </trkpt>
      <trkpt lat="47.29899" lon="-1.49138">
        <ele>28.9</ele>
        <time>2019-04-09T19:23:19Z</time>
      </trkpt>
      <trkpt lat="47.29898" lon="-1.49133">
        <ele>29.1</ele>
        <time>2019-04-09T19:23:22Z</time>
      </trkpt>
      <trkpt lat="47.29898" lon="-1.49132">
        <ele>29.1</ele>
        <time>2019-04-09T19:23:23Z</time>
      </trkpt>
      <trkpt lat="47.29898" lon="-1.49117">
        <ele>29.3</ele>
        <time>2019-04-09T19:23:32Z</time>
      </trkpt>
      <trkpt lat="47.29897" lon="-1.49114">
        <ele>29.4</ele>
        <time>2019-04-09T19:23:34Z</time>
      </trkpt>
      <trkpt lat="47.29895" lon="-1.49108">
        <ele>29.6</ele>
        <time>2019-04-09T19:23:38Z</time>
      </trkpt>
      <trkpt lat="47.29887" lon="-1.49083">
        <ele>30.1</ele>
        <time>2019-04-09T19:23:51Z</time>
      </trkpt>
      <trkpt lat="47.2987" lon="-1.4907">
        <ele>30.7</ele>
        <time>2019-04-09T19:23:59Z</time>
      </trkpt>
      <trkpt lat="47.29853" lon="-1.49058">
        <ele>31.3</ele>
        <time>2019-04-09T19:24:07Z</time>
      </trkpt>
      <trkpt lat="47.29839" lon="-1.49037">
        <ele>31.2</ele>
        <time>2019-04-09T19:24:16Z</time>
      </trkpt>
      <trkpt lat="47.29829" lon="-1.49011">
        <ele>31.1</ele>
        <time>2019-04-09T19:24:25Z</time>
      </trkpt>
      <trkpt lat="47.29831" lon="-1.48995">
        <ele>30.8</ele>
        <time>2019-04-09T19:24:29Z</time>
      </trkpt>
      <trkpt lat="47.29832" lon="-1.48992">
        <ele>30.7</ele>
        <time>2019-04-09T19:24:30Z</time>
      </trkpt>
      <trkpt lat="47.29835" lon="-1.48963">
        <ele>29.7</ele>
        <time>2019-04-09T19:24:38Z</time>
      </trkpt>
      <trkpt lat="47.29836" lon="-1.48956">
        <ele>29.4</ele>
        <time>2019-04-09T19:24:40Z</time>
      </trkpt>
      <trkpt lat="47.29837" lon="-1.48949">
        <ele>29.2</ele>
        <time>2019-04-09T19:24:42Z</time>
      </trkpt>
      <trkpt lat="47.29844" lon="-1.48924">
        <ele>29</ele>
        <time>2019-04-09T19:24:50Z</time>
      </trkpt>
      <trkpt lat="47.29851" lon="-1.48898">
        <ele>28.3</ele>
        <time>2019-04-09T19:24:59Z</time>
      </trkpt>
      <trkpt lat="47.29861" lon="-1.48874">
        <ele>28</ele>
        <time>2019-04-09T19:25:07Z</time>
      </trkpt>
      <trkpt lat="47.29868" lon="-1.4885">
        <ele>27.7</ele>
        <time>2019-04-09T19:25:14Z</time>
      </trkpt>
      <trkpt lat="47.29868" lon="-1.48846">
        <ele>27.6</ele>
        <time>2019-04-09T19:25:15Z</time>
      </trkpt>
      <trkpt lat="47.29862" lon="-1.48821">
        <ele>27</ele>
        <time>2019-04-09T19:25:22Z</time>
      </trkpt>
      <trkpt lat="47.29857" lon="-1.48813">
        <ele>27</ele>
        <time>2019-04-09T19:25:25Z</time>
      </trkpt>
      <trkpt lat="47.29855" lon="-1.48811">
        <ele>27</ele>
        <time>2019-04-09T19:25:26Z</time>
      </trkpt>
      <trkpt lat="47.29851" lon="-1.48806">
        <ele>27</ele>
        <time>2019-04-09T19:25:28Z</time>
      </trkpt>
      <trkpt lat="47.29845" lon="-1.48799">
        <ele>27</ele>
        <time>2019-04-09T19:25:32Z</time>
      </trkpt>
      <trkpt lat="47.29837" lon="-1.48793">
        <ele>27</ele>
        <time>2019-04-09T19:25:36Z</time>
      </trkpt>
      <trkpt lat="47.29829" lon="-1.48786">
        <ele>27</ele>
        <time>2019-04-09T19:25:40Z</time>
      </trkpt>
      <trkpt lat="47.29827" lon="-1.48784">
        <ele>27</ele>
        <time>2019-04-09T19:25:41Z</time>
      </trkpt>
      <trkpt lat="47.29811" lon="-1.48768">
        <ele>26.7</ele>
        <time>2019-04-09T19:25:48Z</time>
      </trkpt>
      <trkpt lat="47.29795" lon="-1.48755">
        <ele>26.4</ele>
        <time>2019-04-09T19:25:55Z</time>
      </trkpt>
      <trkpt lat="47.29782" lon="-1.48747">
        <ele>26.8</ele>
        <time>2019-04-09T19:26:01Z</time>
      </trkpt>
      <trkpt lat="47.29779" lon="-1.48747">
        <ele>26.8</ele>
        <time>2019-04-09T19:26:02Z</time>
      </trkpt>
      <trkpt lat="47.29762" lon="-1.48739">
        <ele>26.6</ele>
        <time>2019-04-09T19:26:09Z</time>
      </trkpt>
      <trkpt lat="47.2976" lon="-1.48737">
        <ele>26.5</ele>
        <time>2019-04-09T19:26:10Z</time>
      </trkpt>
      <trkpt lat="47.29742" lon="-1.48724">
        <ele>26.3</ele>
        <time>2019-04-09T19:26:18Z</time>
      </trkpt>
      <trkpt lat="47.29728" lon="-1.48709">
        <ele>26.8</ele>
        <time>2019-04-09T19:26:25Z</time>
      </trkpt>
      <trkpt lat="47.29712" lon="-1.48693">
        <ele>27</ele>
        <time>2019-04-09T19:26:32Z</time>
      </trkpt>
      <trkpt lat="47.29699" lon="-1.48671">
        <ele>26.9</ele>
        <time>2019-04-09T19:26:40Z</time>
      </trkpt>
      <trkpt lat="47.29698" lon="-1.48669">
        <ele>26.9</ele>
        <time>2019-04-09T19:26:41Z</time>
      </trkpt>
      <trkpt lat="47.29696" lon="-1.48667">
        <ele>26.9</ele>
        <time>2019-04-09T19:26:42Z</time>
      </trkpt>
      <trkpt lat="47.29683" lon="-1.48648">
        <ele>27.4</ele>
        <time>2019-04-09T19:26:50Z</time>
      </trkpt>
      <trkpt lat="47.29668" lon="-1.48634">
        <ele>28</ele>
        <time>2019-04-09T19:26:58Z</time>
      </trkpt>
      <trkpt lat="47.29666" lon="-1.48631">
        <ele>28</ele>
        <time>2019-04-09T19:26:59Z</time>
      </trkpt>
      <trkpt lat="47.29662" lon="-1.48627">
        <ele>28.2</ele>
        <time>2019-04-09T19:27:01Z</time>
      </trkpt>
      <trkpt lat="47.29648" lon="-1.48611">
        <ele>28.7</ele>
        <time>2019-04-09T19:27:09Z</time>
      </trkpt>
      <trkpt lat="47.29638" lon="-1.4861">
        <ele>29</ele>
        <time>2019-04-09T19:27:16Z</time>
      </trkpt>
      <trkpt lat="47.29633" lon="-1.48611">
        <ele>29</ele>
        <time>2019-04-09T19:27:18Z</time>
      </trkpt>
      <trkpt lat="47.29613" lon="-1.48619">
        <ele>29</ele>
        <time>2019-04-09T19:27:26Z</time>
      </trkpt>
      <trkpt lat="47.29611" lon="-1.4862">
        <ele>29</ele>
        <time>2019-04-09T19:27:27Z</time>
      </trkpt>
      <trkpt lat="47.29591" lon="-1.48618">
        <ele>29</ele>
        <time>2019-04-09T19:27:35Z</time>
      </trkpt>
      <trkpt lat="47.29589" lon="-1.48617">
        <ele>29</ele>
        <time>2019-04-09T19:27:36Z</time>
      </trkpt>
      <trkpt lat="47.29587" lon="-1.48616">
        <ele>29</ele>
        <time>2019-04-09T19:27:37Z</time>
      </trkpt>
      <trkpt lat="47.29568" lon="-1.48608">
        <ele>29.5</ele>
        <time>2019-04-09T19:27:45Z</time>
      </trkpt>
      <trkpt lat="47.29553" lon="-1.486">
        <ele>29.6</ele>
        <time>2019-04-09T19:27:52Z</time>
      </trkpt>
      <trkpt lat="47.2955" lon="-1.48599">
        <ele>29.7</ele>
        <time>2019-04-09T19:27:53Z</time>
      </trkpt>
      <trkpt lat="47.29544" lon="-1.48596">
        <ele>29.7</ele>
        <time>2019-04-09T19:27:56Z</time>
      </trkpt>
      <trkpt lat="47.29526" lon="-1.4859">
        <ele>30</ele>
        <time>2019-04-09T19:28:04Z</time>
      </trkpt>
      <trkpt lat="47.29508" lon="-1.48583">
        <ele>30</ele>
        <time>2019-04-09T19:28:13Z</time>
      </trkpt>
      <trkpt lat="47.29494" lon="-1.48601">
        <ele>30.9</ele>
        <time>2019-04-09T19:28:23Z</time>
      </trkpt>
      <trkpt lat="47.2949" lon="-1.48604">
        <ele>31.2</ele>
        <time>2019-04-09T19:28:25Z</time>
      </trkpt>
      <trkpt lat="47.29488" lon="-1.48605">
        <ele>31.3</ele>
        <time>2019-04-09T19:28:26Z</time>
      </trkpt>
      <trkpt lat="47.29484" lon="-1.48607">
        <ele>31.5</ele>
        <time>2019-04-09T19:28:28Z</time>
      </trkpt>
      <trkpt lat="47.29484" lon="-1.48634">
        <ele>31.9</ele>
        <time>2019-04-09T19:28:36Z</time>
      </trkpt>
      <trkpt lat="47.29468" lon="-1.4865">
        <ele>32</ele>
        <time>2019-04-09T19:28:43Z</time>
      </trkpt>
      <trkpt lat="47.29463" lon="-1.48653">
        <ele>32</ele>
        <time>2019-04-09T19:28:45Z</time>
      </trkpt>
      <trkpt lat="47.29461" lon="-1.48654">
        <ele>32</ele>
        <time>2019-04-09T19:28:46Z</time>
      </trkpt>
      <trkpt lat="47.29451" lon="-1.48659">
        <ele>32</ele>
        <time>2019-04-09T19:28:50Z</time>
      </trkpt>
      <trkpt lat="47.29443" lon="-1.48662">
        <ele>32</ele>
        <time>2019-04-09T19:28:53Z</time>
      </trkpt>
      <trkpt lat="47.29426" lon="-1.48672">
        <ele>31.9</ele>
        <time>2019-04-09T19:29:00Z</time>
      </trkpt>
      <trkpt lat="47.29408" lon="-1.48678">
        <ele>31.3</ele>
        <time>2019-04-09T19:29:09Z</time>
      </trkpt>
      <trkpt lat="47.29397" lon="-1.48653">
        <ele>31.3</ele>
        <time>2019-04-09T19:29:17Z</time>
      </trkpt>
      <trkpt lat="47.29386" lon="-1.48651">
        <ele>31</ele>
        <time>2019-04-09T19:29:21Z</time>
      </trkpt>
      <trkpt lat="47.29384" lon="-1.48652">
        <ele>30.9</ele>
        <time>2019-04-09T19:29:22Z</time>
      </trkpt>
      <trkpt lat="47.29369" lon="-1.48653">
        <ele>30.6</ele>
        <time>2019-04-09T19:29:28Z</time>
      </trkpt>
      <trkpt lat="47.29367" lon="-1.48653">
        <ele>30.6</ele>
        <time>2019-04-09T19:29:29Z</time>
      </trkpt>
      <trkpt lat="47.29361" lon="-1.48655">
        <ele>30.4</ele>
        <time>2019-04-09T19:29:32Z</time>
      </trkpt>
      <trkpt lat="47.29342" lon="-1.48663">
        <ele>30</ele>
        <time>2019-04-09T19:29:41Z</time>
      </trkpt>
      <trkpt lat="47.29324" lon="-1.48666">
        <ele>29.7</ele>
        <time>2019-04-09T19:29:50Z</time>
      </trkpt>
      <trkpt lat="47.29307" lon="-1.48677">
        <ele>28.7</ele>
        <time>2019-04-09T19:29:58Z</time>
      </trkpt>
      <trkpt lat="47.29289" lon="-1.48683">
        <ele>28.2</ele>
        <time>2019-04-09T19:30:05Z</time>
      </trkpt>
      <trkpt lat="47.29272" lon="-1.4868">
        <ele>27.9</ele>
        <time>2019-04-09T19:30:12Z</time>
      </trkpt>
      <trkpt lat="47.29267" lon="-1.48678">
        <ele>27.8</ele>
        <time>2019-04-09T19:30:14Z</time>
      </trkpt>
      <trkpt lat="47.29248" lon="-1.48681">
        <ele>27.5</ele>
        <time>2019-04-09T19:30:21Z</time>
      </trkpt>
      <trkpt lat="47.29229" lon="-1.48675">
        <ele>27.5</ele>
        <time>2019-04-09T19:30:28Z</time>
      </trkpt>
      <trkpt lat="47.29223" lon="-1.4867">
        <ele>27.8</ele>
        <time>2019-04-09T19:30:31Z</time>
      </trkpt>
      <trkpt lat="47.29221" lon="-1.48669">
        <ele>27.8</ele>
        <time>2019-04-09T19:30:32Z</time>
      </trkpt>
      <trkpt lat="47.29213" lon="-1.48663">
        <ele>27.6</ele>
        <time>2019-04-09T19:30:36Z</time>
      </trkpt>
      <trkpt lat="47.29196" lon="-1.4865">
        <ele>27.8</ele>
        <time>2019-04-09T19:30:44Z</time>
      </trkpt>
      <trkpt lat="47.29178" lon="-1.48637">
        <ele>26.1</ele>
        <time>2019-04-09T19:30:52Z</time>
      </trkpt>
      <trkpt lat="47.29174" lon="-1.48633">
        <ele>25.4</ele>
        <time>2019-04-09T19:30:54Z</time>
      </trkpt>
      <trkpt lat="47.29171" lon="-1.48632">
        <ele>25.1</ele>
        <time>2019-04-09T19:30:55Z</time>
      </trkpt>
      <trkpt lat="47.29153" lon="-1.48621">
        <ele>24.8</ele>
        <time>2019-04-09T19:31:02Z</time>
      </trkpt>
      <trkpt lat="47.29136" lon="-1.48608">
        <ele>24.8</ele>
        <time>2019-04-09T19:31:09Z</time>
      </trkpt>
      <trkpt lat="47.29134" lon="-1.48606">
        <ele>24.8</ele>
        <time>2019-04-09T19:31:10Z</time>
      </trkpt>
      <trkpt lat="47.29131" lon="-1.48604">
        <ele>24.8</ele>
        <time>2019-04-09T19:31:11Z</time>
      </trkpt>
      <trkpt lat="47.29116" lon="-1.48595">
        <ele>26</ele>
        <time>2019-04-09T19:31:17Z</time>
      </trkpt>
      <trkpt lat="47.29113" lon="-1.48594">
        <ele>26.4</ele>
        <time>2019-04-09T19:31:18Z</time>
      </trkpt>
      <trkpt lat="47.29096" lon="-1.4858">
        <ele>26.6</ele>
        <time>2019-04-09T19:31:26Z</time>
      </trkpt>
      <trkpt lat="47.29089" lon="-1.48574">
        <ele>26.8</ele>
        <time>2019-04-09T19:31:29Z</time>
      </trkpt>
      <trkpt lat="47.29087" lon="-1.48572">
        <ele>26.9</ele>
        <time>2019-04-09T19:31:30Z</time>
      </trkpt>
      <trkpt lat="47.29082" lon="-1.48569">
        <ele>27</ele>
        <time>2019-04-09T19:31:32Z</time>
      </trkpt>
      <trkpt lat="47.29066" lon="-1.48555">
        <ele>27.4</ele>
        <time>2019-04-09T19:31:39Z</time>
      </trkpt>
      <trkpt lat="47.29048" lon="-1.48544">
        <ele>27.4</ele>
        <time>2019-04-09T19:31:47Z</time>
      </trkpt>
      <trkpt lat="47.29033" lon="-1.48528">
        <ele>28</ele>
        <time>2019-04-09T19:31:54Z</time>
      </trkpt>
      <trkpt lat="47.29015" lon="-1.48516">
        <ele>28</ele>
        <time>2019-04-09T19:32:02Z</time>
      </trkpt>
      <trkpt lat="47.29009" lon="-1.4851">
        <ele>28</ele>
        <time>2019-04-09T19:32:05Z</time>
      </trkpt>
      <trkpt lat="47.29006" lon="-1.48508">
        <ele>28</ele>
        <time>2019-04-09T19:32:06Z</time>
      </trkpt>
      <trkpt lat="47.28997" lon="-1.48502">
        <ele>28</ele>
        <time>2019-04-09T19:32:10Z</time>
      </trkpt>
      <trkpt lat="47.28984" lon="-1.48492">
        <ele>28</ele>
        <time>2019-04-09T19:32:16Z</time>
      </trkpt>
      <trkpt lat="47.28982" lon="-1.4849">
        <ele>28</ele>
        <time>2019-04-09T19:32:17Z</time>
      </trkpt>
      <trkpt lat="47.28965" lon="-1.48479">
        <ele>28.2</ele>
        <time>2019-04-09T19:32:24Z</time>
      </trkpt>
      <trkpt lat="47.2896" lon="-1.48471">
        <ele>28.4</ele>
        <time>2019-04-09T19:32:28Z</time>
      </trkpt>
      <trkpt lat="47.28958" lon="-1.4847">
        <ele>28.5</ele>
        <time>2019-04-09T19:32:29Z</time>
      </trkpt>
      <trkpt lat="47.2894" lon="-1.48459">
        <ele>29.2</ele>
        <time>2019-04-09T19:32:37Z</time>
      </trkpt>
      <trkpt lat="47.28921" lon="-1.48448">
        <ele>29.8</ele>
        <time>2019-04-09T19:32:44Z</time>
      </trkpt>
      <trkpt lat="47.28907" lon="-1.48436">
        <ele>30</ele>
        <time>2019-04-09T19:32:51Z</time>
      </trkpt>
      <trkpt lat="47.28892" lon="-1.48428">
        <ele>30</ele>
        <time>2019-04-09T19:32:59Z</time>
      </trkpt>
      <trkpt lat="47.28877" lon="-1.48417">
        <ele>30</ele>
        <time>2019-04-09T19:33:06Z</time>
      </trkpt>
      <trkpt lat="47.28876" lon="-1.48415">
        <ele>30</ele>
        <time>2019-04-09T19:33:07Z</time>
      </trkpt>
      <trkpt lat="47.28856" lon="-1.48407">
        <ele>30.5</ele>
        <time>2019-04-09T19:33:14Z</time>
      </trkpt>
      <trkpt lat="47.28844" lon="-1.48402">
        <ele>30.8</ele>
        <time>2019-04-09T19:33:19Z</time>
      </trkpt>
      <trkpt lat="47.28841" lon="-1.48401">
        <ele>30.9</ele>
        <time>2019-04-09T19:33:20Z</time>
      </trkpt>
      <trkpt lat="47.28824" lon="-1.48391">
        <ele>31</ele>
        <time>2019-04-09T19:33:27Z</time>
      </trkpt>
      <trkpt lat="47.28808" lon="-1.48372">
        <ele>31</ele>
        <time>2019-04-09T19:33:34Z</time>
      </trkpt>
      <trkpt lat="47.28797" lon="-1.48358">
        <ele>31</ele>
        <time>2019-04-09T19:33:39Z</time>
      </trkpt>
      <trkpt lat="47.28796" lon="-1.48355">
        <ele>31</ele>
        <time>2019-04-09T19:33:40Z</time>
      </trkpt>
      <trkpt lat="47.28793" lon="-1.48329">
        <ele>31</ele>
        <time>2019-04-09T19:33:47Z</time>
      </trkpt>
      <trkpt lat="47.28793" lon="-1.48322">
        <ele>31</ele>
        <time>2019-04-09T19:33:49Z</time>
      </trkpt>
      <trkpt lat="47.28793" lon="-1.48319">
        <ele>31</ele>
        <time>2019-04-09T19:33:50Z</time>
      </trkpt>
      <trkpt lat="47.28792" lon="-1.48309">
        <ele>31</ele>
        <time>2019-04-09T19:33:53Z</time>
      </trkpt>
      <trkpt lat="47.28779" lon="-1.48287">
        <ele>31.7</ele>
        <time>2019-04-09T19:34:00Z</time>
      </trkpt>
      <trkpt lat="47.28777" lon="-1.48284">
        <ele>31.8</ele>
        <time>2019-04-09T19:34:01Z</time>
      </trkpt>
      <trkpt lat="47.28775" lon="-1.48278">
        <ele>32.1</ele>
        <time>2019-04-09T19:34:03Z</time>
      </trkpt>
      <trkpt lat="47.28764" lon="-1.48256">
        <ele>32.5</ele>
        <time>2019-04-09T19:34:10Z</time>
      </trkpt>
      <trkpt lat="47.28752" lon="-1.48236">
        <ele>32.9</ele>
        <time>2019-04-09T19:34:19Z</time>
      </trkpt>
      <trkpt lat="47.28737" lon="-1.4822">
        <ele>33</ele>
        <time>2019-04-09T19:34:25Z</time>
      </trkpt>
      <trkpt lat="47.28729" lon="-1.4821">
        <ele>32.9</ele>
        <time>2019-04-09T19:34:29Z</time>
      </trkpt>
      <trkpt lat="47.28725" lon="-1.48204">
        <ele>32.9</ele>
        <time>2019-04-09T19:34:31Z</time>
      </trkpt>
      <trkpt lat="47.28721" lon="-1.48199">
        <ele>33</ele>
        <time>2019-04-09T19:34:33Z</time>
      </trkpt>
      <trkpt lat="47.28705" lon="-1.4818">
        <ele>32.8</ele>
        <time>2019-04-09T19:34:42Z</time>
      </trkpt>
      <trkpt lat="47.28693" lon="-1.48163">
        <ele>32.9</ele>
        <time>2019-04-09T19:34:48Z</time>
      </trkpt>
      <trkpt lat="47.28691" lon="-1.4816">
        <ele>32.8</ele>
        <time>2019-04-09T19:34:49Z</time>
      </trkpt>
      <trkpt lat="47.28676" lon="-1.48142">
        <ele>33.3</ele>
        <time>2019-04-09T19:34:56Z</time>
      </trkpt>
      <trkpt lat="47.28674" lon="-1.48139">
        <ele>33.5</ele>
        <time>2019-04-09T19:34:57Z</time>
      </trkpt>
      <trkpt lat="47.28672" lon="-1.48136">
        <ele>33.6</ele>
        <time>2019-04-09T19:34:58Z</time>
      </trkpt>
      <trkpt lat="47.28658" lon="-1.48118">
        <ele>34</ele>
        <time>2019-04-09T19:35:06Z</time>
      </trkpt>
      <trkpt lat="47.28641" lon="-1.481">
        <ele>34.3</ele>
        <time>2019-04-09T19:35:15Z</time>
      </trkpt>
      <trkpt lat="47.28625" lon="-1.48084">
        <ele>34.5</ele>
        <time>2019-04-09T19:35:23Z</time>
      </trkpt>
      <trkpt lat="47.28608" lon="-1.48095">
        <ele>33.9</ele>
        <time>2019-04-09T19:35:32Z</time>
      </trkpt>
      <trkpt lat="47.28593" lon="-1.4811">
        <ele>33.4</ele>
        <time>2019-04-09T19:35:40Z</time>
      </trkpt>
      <trkpt lat="47.2858" lon="-1.48123">
        <ele>32.6</ele>
        <time>2019-04-09T19:35:45Z</time>
      </trkpt>
      <trkpt lat="47.28575" lon="-1.48143">
        <ele>32.3</ele>
        <time>2019-04-09T19:35:53Z</time>
      </trkpt>
      <trkpt lat="47.28575" lon="-1.48147">
        <ele>32.2</ele>
        <time>2019-04-09T19:35:54Z</time>
      </trkpt>
      <trkpt lat="47.28574" lon="-1.48166">
        <ele>32</ele>
        <time>2019-04-09T19:35:59Z</time>
      </trkpt>
      <trkpt lat="47.28573" lon="-1.4817">
        <ele>32</ele>
        <time>2019-04-09T19:36:00Z</time>
      </trkpt>
      <trkpt lat="47.28565" lon="-1.48196">
        <ele>32</ele>
        <time>2019-04-09T19:36:07Z</time>
      </trkpt>
      <trkpt lat="47.28564" lon="-1.482">
        <ele>32</ele>
        <time>2019-04-09T19:36:08Z</time>
      </trkpt>
      <trkpt lat="47.28557" lon="-1.48226">
        <ele>32</ele>
        <time>2019-04-09T19:36:15Z</time>
      </trkpt>
      <trkpt lat="47.28555" lon="-1.48233">
        <ele>32</ele>
        <time>2019-04-09T19:36:17Z</time>
      </trkpt>
      <trkpt lat="47.28554" lon="-1.48236">
        <ele>31.9</ele>
        <time>2019-04-09T19:36:18Z</time>
      </trkpt>
      <trkpt lat="47.28559" lon="-1.48255">
        <ele>32</ele>
        <time>2019-04-09T19:36:24Z</time>
      </trkpt>
      <trkpt lat="47.2856" lon="-1.48258">
        <ele>32</ele>
        <time>2019-04-09T19:36:25Z</time>
      </trkpt>
      <trkpt lat="47.28565" lon="-1.48267">
        <ele>32</ele>
        <time>2019-04-09T19:36:28Z</time>
      </trkpt>
      <trkpt lat="47.28581" lon="-1.48281">
        <ele>31.9</ele>
        <time>2019-04-09T19:36:36Z</time>
      </trkpt>
      <trkpt lat="47.28589" lon="-1.48284">
        <ele>31.8</ele>
        <time>2019-04-09T19:36:39Z</time>
      </trkpt>
      <trkpt lat="47.28591" lon="-1.48285">
        <ele>31.8</ele>
        <time>2019-04-09T19:36:40Z</time>
      </trkpt>
      <trkpt lat="47.28597" lon="-1.48287">
        <ele>31.8</ele>
        <time>2019-04-09T19:36:43Z</time>
      </trkpt>
      <trkpt lat="47.28604" lon="-1.4828">
        <ele>32</ele>
        <time>2019-04-09T19:36:52Z</time>
      </trkpt>
      <trkpt lat="47.28607" lon="-1.48259">
        <ele>32</ele>
        <time>2019-04-09T19:37:02Z</time>
      </trkpt>
      <trkpt lat="47.28593" lon="-1.48238">
        <ele>32</ele>
        <time>2019-04-09T19:37:09Z</time>
      </trkpt>
      <trkpt lat="47.28591" lon="-1.48235">
        <ele>32</ele>
        <time>2019-04-09T19:37:10Z</time>
      </trkpt>
      <trkpt lat="47.28589" lon="-1.48231">
        <ele>32</ele>
        <time>2019-04-09T19:37:11Z</time>
      </trkpt>
      <trkpt lat="47.2859" lon="-1.48203">
        <ele>32</ele>
        <time>2019-04-09T19:37:19Z</time>
      </trkpt>
      <trkpt lat="47.28597" lon="-1.48177">
        <ele>32</ele>
        <time>2019-04-09T19:37:27Z</time>
      </trkpt>
      <trkpt lat="47.28613" lon="-1.48165">
        <ele>32</ele>
        <time>2019-04-09T19:37:35Z</time>
      </trkpt>
      <trkpt lat="47.28632" lon="-1.48168">
        <ele>32</ele>
        <time>2019-04-09T19:37:43Z</time>
      </trkpt>
      <trkpt lat="47.28635" lon="-1.4817">
        <ele>32</ele>
        <time>2019-04-09T19:37:44Z</time>
      </trkpt>
      <trkpt lat="47.28637" lon="-1.48172">
        <ele>32</ele>
        <time>2019-04-09T19:37:45Z</time>
      </trkpt>
      <trkpt lat="47.28649" lon="-1.48194">
        <ele>32</ele>
        <time>2019-04-09T19:37:53Z</time>
      </trkpt>
      <trkpt lat="47.28666" lon="-1.48207">
        <ele>32</ele>
        <time>2019-04-09T19:38:01Z</time>
      </trkpt>
      <trkpt lat="47.28683" lon="-1.4821">
        <ele>32.3</ele>
        <time>2019-04-09T19:38:12Z</time>
      </trkpt>
      <trkpt lat="47.28688" lon="-1.48208">
        <ele>32.4</ele>
        <time>2019-04-09T19:38:20Z</time>
      </trkpt>
      <trkpt lat="47.28704" lon="-1.48223">
        <ele>32.3</ele>
        <time>2019-04-09T19:38:28Z</time>
      </trkpt>
      <trkpt lat="47.28708" lon="-1.4825">
        <ele>32.5</ele>
        <time>2019-04-09T19:38:36Z</time>
      </trkpt>
      <trkpt lat="47.28703" lon="-1.48276">
        <ele>32.3</ele>
        <time>2019-04-09T19:38:43Z</time>
      </trkpt>
      <trkpt lat="47.28702" lon="-1.48279">
        <ele>32.2</ele>
        <time>2019-04-09T19:38:44Z</time>
      </trkpt>
      <trkpt lat="47.287" lon="-1.48283">
        <ele>32.2</ele>
        <time>2019-04-09T19:38:45Z</time>
      </trkpt>
      <trkpt lat="47.28688" lon="-1.48298">
        <ele>32</ele>
        <time>2019-04-09T19:38:51Z</time>
      </trkpt>
      <trkpt lat="47.28686" lon="-1.483">
        <ele>32</ele>
        <time>2019-04-09T19:38:52Z</time>
      </trkpt>
      <trkpt lat="47.2868" lon="-1.48302">
        <ele>32</ele>
        <time>2019-04-09T19:38:54Z</time>
      </trkpt>
      <trkpt lat="47.28662" lon="-1.48296">
        <ele>32</ele>
        <time>2019-04-09T19:39:02Z</time>
      </trkpt>
      <trkpt lat="47.28646" lon="-1.4828">
        <ele>32</ele>
        <time>2019-04-09T19:39:10Z</time>
      </trkpt>
      <trkpt lat="47.28627" lon="-1.48268">
        <ele>32</ele>
        <time>2019-04-09T19:39:18Z</time>
      </trkpt>
      <trkpt lat="47.2861" lon="-1.48257">
        <ele>32</ele>
        <time>2019-04-09T19:39:26Z</time>
      </trkpt>
      <trkpt lat="47.28608" lon="-1.48255">
        <ele>32</ele>
        <time>2019-04-09T19:39:27Z</time>
      </trkpt>
      <trkpt lat="47.28605" lon="-1.48254">
        <ele>32</ele>
        <time>2019-04-09T19:39:28Z</time>
      </trkpt>
      <trkpt lat="47.2859" lon="-1.4824">
        <ele>32</ele>
        <time>2019-04-09T19:39:36Z</time>
      </trkpt>
      <trkpt lat="47.28585" lon="-1.48224">
        <ele>32</ele>
        <time>2019-04-09T19:39:41Z</time>
      </trkpt>
      <trkpt lat="47.28585" lon="-1.4822">
        <ele>32</ele>
        <time>2019-04-09T19:39:42Z</time>
      </trkpt>
      <trkpt lat="47.28587" lon="-1.48192">
        <ele>32</ele>
        <time>2019-04-09T19:39:51Z</time>
      </trkpt>
      <trkpt lat="47.28593" lon="-1.48176">
        <ele>32</ele>
        <time>2019-04-09T19:39:56Z</time>
      </trkpt>
      <trkpt lat="47.28594" lon="-1.48173">
        <ele>32</ele>
        <time>2019-04-09T19:39:57Z</time>
      </trkpt>
      <trkpt lat="47.2861" lon="-1.4816">
        <ele>32</ele>
        <time>2019-04-09T19:40:04Z</time>
      </trkpt>
      <trkpt lat="47.28613" lon="-1.4816">
        <ele>32</ele>
        <time>2019-04-09T19:40:05Z</time>
      </trkpt>
      <trkpt lat="47.28627" lon="-1.48164">
        <ele>32.1</ele>
        <time>2019-04-09T19:40:11Z</time>
      </trkpt>
      <trkpt lat="47.28628" lon="-1.48165">
        <ele>32.1</ele>
        <time>2019-04-09T19:40:12Z</time>
      </trkpt>
      <trkpt lat="47.28644" lon="-1.48179">
        <ele>32.1</ele>
        <time>2019-04-09T19:40:20Z</time>
      </trkpt>
      <trkpt lat="47.2866" lon="-1.48196">
        <ele>32</ele>
        <time>2019-04-09T19:40:28Z</time>
      </trkpt>
      <trkpt lat="47.28662" lon="-1.48198">
        <ele>32</ele>
        <time>2019-04-09T19:40:29Z</time>
      </trkpt>
      <trkpt lat="47.2868" lon="-1.48209">
        <ele>32.2</ele>
        <time>2019-04-09T19:40:37Z</time>
      </trkpt>
      <trkpt lat="47.28695" lon="-1.48223">
        <ele>32</ele>
        <time>2019-04-09T19:40:46Z</time>
      </trkpt>
      <trkpt lat="47.28704" lon="-1.48245">
        <ele>32.4</ele>
        <time>2019-04-09T19:40:55Z</time>
      </trkpt>
      <trkpt lat="47.28697" lon="-1.48269">
        <ele>32.1</ele>
        <time>2019-04-09T19:41:04Z</time>
      </trkpt>
      <trkpt lat="47.28686" lon="-1.48292">
        <ele>32</ele>
        <time>2019-04-09T19:41:13Z</time>
      </trkpt>
      <trkpt lat="47.28668" lon="-1.48298">
        <ele>32</ele>
        <time>2019-04-09T19:41:23Z</time>
      </trkpt>
      <trkpt lat="47.28663" lon="-1.48294">
        <ele>32</ele>
        <time>2019-04-09T19:41:26Z</time>
      </trkpt>
      <trkpt lat="47.28661" lon="-1.48292">
        <ele>32</ele>
        <time>2019-04-09T19:41:27Z</time>
      </trkpt>
      <trkpt lat="47.28656" lon="-1.48288">
        <ele>32</ele>
        <time>2019-04-09T19:41:30Z</time>
      </trkpt>
      <trkpt lat="47.2864" lon="-1.48274">
        <ele>32</ele>
        <time>2019-04-09T19:41:40Z</time>
      </trkpt>
      <trkpt lat="47.28622" lon="-1.48263">
        <ele>32</ele>
        <time>2019-04-09T19:41:50Z</time>
      </trkpt>
      <trkpt lat="47.28604" lon="-1.48253">
        <ele>32</ele>
        <time>2019-04-09T19:42:03Z</time>
      </trkpt>
      <trkpt lat="47.28599" lon="-1.48255">
        <ele>32</ele>
        <time>2019-04-09T19:42:11Z</time>
      </trkpt>
    </trkseg>
  </trk>
</gpx>